<?xml version="1.0" encoding="UTF-8" standalone="no" ?>
<gpx xmlns="http://www.topografix.com/GPX/1/1" xmlns:xsi="http://www.w3.org/2001/XMLSchema-instance" xsi:schemaLocation="http://www.topografix.com/GPX/1/1 http://www.topografix.com/GPX/1/1/gpx.xsd" version="1.1" creator="VisuGPX - https://www.visugpx.com">
  <metadata>
    <name>Bouc-Bel-Air Terres Blanches - Caraire du Moulin</name>
    <desc><![CDATA[Sans difficulté.]]></desc>
  </metadata>
  <trk>
    <name><![CDATA[Bouc-Bel-Air Terres Blanches - Caraire du Moulin_1]]></name>
    <trkseg>
      <trkpt lat="43.45382" lon="5.41882">
        <ele>286.9</ele>
        <time>2021-09-28T12:01:24Z</time>
      </trkpt>
      <trkpt lat="43.45377" lon="5.4189">
        <ele>288.1</ele>
        <time>2021-09-28T12:01:35Z</time>
      </trkpt>
      <trkpt lat="43.45377" lon="5.419">
        <ele>277.2</ele>
        <time>2021-09-28T12:01:46Z</time>
      </trkpt>
      <trkpt lat="43.45367" lon="5.41903">
        <ele>285.7</ele>
        <time>2021-09-28T12:01:57Z</time>
      </trkpt>
      <trkpt lat="43.45359" lon="5.41903">
        <ele>281.9</ele>
        <time>2021-09-28T12:02:08Z</time>
      </trkpt>
      <trkpt lat="43.45352" lon="5.41903">
        <ele>284</ele>
        <time>2021-09-28T12:02:19Z</time>
      </trkpt>
      <trkpt lat="43.45343" lon="5.41901">
        <ele>297</ele>
        <time>2021-09-28T12:02:29Z</time>
      </trkpt>
      <trkpt lat="43.45335" lon="5.41901">
        <ele>293.3</ele>
        <time>2021-09-28T12:02:40Z</time>
      </trkpt>
      <trkpt lat="43.45328" lon="5.41901">
        <ele>282.4</ele>
        <time>2021-09-28T12:02:51Z</time>
      </trkpt>
      <trkpt lat="43.4532" lon="5.41903">
        <ele>297.1</ele>
        <time>2021-09-28T12:03:01Z</time>
      </trkpt>
      <trkpt lat="43.45311" lon="5.41901">
        <ele>313.1</ele>
        <time>2021-09-28T12:03:12Z</time>
      </trkpt>
      <trkpt lat="43.45303" lon="5.419">
        <ele>302.3</ele>
        <time>2021-09-28T12:03:23Z</time>
      </trkpt>
      <trkpt lat="43.45297" lon="5.41903">
        <ele>313.8</ele>
        <time>2021-09-28T12:03:33Z</time>
      </trkpt>
      <trkpt lat="43.45292" lon="5.41913">
        <ele>298.6</ele>
        <time>2021-09-28T12:03:43Z</time>
      </trkpt>
      <trkpt lat="43.45286" lon="5.41921">
        <ele>307.9</ele>
        <time>2021-09-28T12:03:54Z</time>
      </trkpt>
      <trkpt lat="43.45282" lon="5.41929">
        <ele>292.4</ele>
        <time>2021-09-28T12:04:05Z</time>
      </trkpt>
      <trkpt lat="43.45282" lon="5.41937">
        <ele>293.1</ele>
        <time>2021-09-28T12:04:15Z</time>
      </trkpt>
      <trkpt lat="43.45283" lon="5.41952">
        <ele>304</ele>
        <time>2021-09-28T12:04:26Z</time>
      </trkpt>
      <trkpt lat="43.45282" lon="5.41964">
        <ele>302.6</ele>
        <time>2021-09-28T12:04:37Z</time>
      </trkpt>
      <trkpt lat="43.45277" lon="5.41968">
        <ele>313.9</ele>
        <time>2021-09-28T12:04:47Z</time>
      </trkpt>
      <trkpt lat="43.45269" lon="5.41962">
        <ele>282.7</ele>
        <time>2021-09-28T12:04:58Z</time>
      </trkpt>
      <trkpt lat="43.45262" lon="5.41957">
        <ele>306.5</ele>
        <time>2021-09-28T12:05:08Z</time>
      </trkpt>
      <trkpt lat="43.45256" lon="5.41951">
        <ele>283.6</ele>
        <time>2021-09-28T12:05:18Z</time>
      </trkpt>
      <trkpt lat="43.45251" lon="5.41951">
        <ele>299.6</ele>
        <time>2021-09-28T12:05:28Z</time>
      </trkpt>
      <trkpt lat="43.4525" lon="5.41955">
        <ele>293</ele>
        <time>2021-09-28T12:05:39Z</time>
      </trkpt>
      <trkpt lat="43.45253" lon="5.41967">
        <ele>297.1</ele>
        <time>2021-09-28T12:05:50Z</time>
      </trkpt>
      <trkpt lat="43.45255" lon="5.41979">
        <ele>301.7</ele>
        <time>2021-09-28T12:06:00Z</time>
      </trkpt>
      <trkpt lat="43.4525" lon="5.41988">
        <ele>309.5</ele>
        <time>2021-09-28T12:06:11Z</time>
      </trkpt>
      <trkpt lat="43.45242" lon="5.41983">
        <ele>294.2</ele>
        <time>2021-09-28T12:06:22Z</time>
      </trkpt>
      <trkpt lat="43.45238" lon="5.41977">
        <ele>314.1</ele>
        <time>2021-09-28T12:06:32Z</time>
      </trkpt>
      <trkpt lat="43.45233" lon="5.41969">
        <ele>311.1</ele>
        <time>2021-09-28T12:06:42Z</time>
      </trkpt>
      <trkpt lat="43.45226" lon="5.4196">
        <ele>282.5</ele>
        <time>2021-09-28T12:06:53Z</time>
      </trkpt>
      <trkpt lat="43.45223" lon="5.41955">
        <ele>297.9</ele>
        <time>2021-09-28T12:07:03Z</time>
      </trkpt>
      <trkpt lat="43.45217" lon="5.41949">
        <ele>305.1</ele>
        <time>2021-09-28T12:07:13Z</time>
      </trkpt>
      <trkpt lat="43.45213" lon="5.41941">
        <ele>305.5</ele>
        <time>2021-09-28T12:07:23Z</time>
      </trkpt>
      <trkpt lat="43.45207" lon="5.41931">
        <ele>298.7</ele>
        <time>2021-09-28T12:07:34Z</time>
      </trkpt>
      <trkpt lat="43.45201" lon="5.41928">
        <ele>314.5</ele>
        <time>2021-09-28T12:07:45Z</time>
      </trkpt>
      <trkpt lat="43.45198" lon="5.41932">
        <ele>311.5</ele>
        <time>2021-09-28T12:07:55Z</time>
      </trkpt>
      <trkpt lat="43.45196" lon="5.41932">
        <ele>312.6</ele>
        <time>2021-09-28T12:08:06Z</time>
      </trkpt>
      <trkpt lat="43.45195" lon="5.41932">
        <ele>311.7</ele>
        <time>2021-09-28T12:08:17Z</time>
      </trkpt>
      <trkpt lat="43.45195" lon="5.41932">
        <ele>303</ele>
        <time>2021-09-28T12:08:27Z</time>
      </trkpt>
      <trkpt lat="43.45195" lon="5.41932">
        <ele>296.9</ele>
        <time>2021-09-28T12:08:38Z</time>
      </trkpt>
      <trkpt lat="43.45195" lon="5.41932">
        <ele>327.7</ele>
        <time>2021-09-28T12:08:49Z</time>
      </trkpt>
      <trkpt lat="43.45199" lon="5.41932">
        <ele>308</ele>
        <time>2021-09-28T12:08:59Z</time>
      </trkpt>
      <trkpt lat="43.45202" lon="5.4194">
        <ele>279.2</ele>
        <time>2021-09-28T12:09:09Z</time>
      </trkpt>
      <trkpt lat="43.45205" lon="5.4195">
        <ele>311.9</ele>
        <time>2021-09-28T12:09:20Z</time>
      </trkpt>
      <trkpt lat="43.45209" lon="5.41959">
        <ele>323.9</ele>
        <time>2021-09-28T12:09:30Z</time>
      </trkpt>
      <trkpt lat="43.45213" lon="5.41966">
        <ele>296.6</ele>
        <time>2021-09-28T12:09:40Z</time>
      </trkpt>
      <trkpt lat="43.45216" lon="5.41975">
        <ele>294.6</ele>
        <time>2021-09-28T12:09:51Z</time>
      </trkpt>
      <trkpt lat="43.45218" lon="5.41984">
        <ele>299.5</ele>
        <time>2021-09-28T12:10:02Z</time>
      </trkpt>
      <trkpt lat="43.4522" lon="5.41992">
        <ele>312.2</ele>
        <time>2021-09-28T12:10:12Z</time>
      </trkpt>
      <trkpt lat="43.45222" lon="5.42003">
        <ele>318.9</ele>
        <time>2021-09-28T12:10:22Z</time>
      </trkpt>
      <trkpt lat="43.45225" lon="5.42012">
        <ele>317.4</ele>
        <time>2021-09-28T12:10:33Z</time>
      </trkpt>
      <trkpt lat="43.45229" lon="5.42018">
        <ele>312</ele>
        <time>2021-09-28T12:10:43Z</time>
      </trkpt>
      <trkpt lat="43.45231" lon="5.42026">
        <ele>313.1</ele>
        <time>2021-09-28T12:10:53Z</time>
      </trkpt>
      <trkpt lat="43.45234" lon="5.42036">
        <ele>316.7</ele>
        <time>2021-09-28T12:11:03Z</time>
      </trkpt>
      <trkpt lat="43.45236" lon="5.42044">
        <ele>323.3</ele>
        <time>2021-09-28T12:11:14Z</time>
      </trkpt>
      <trkpt lat="43.45241" lon="5.42054">
        <ele>331.7</ele>
        <time>2021-09-28T12:11:25Z</time>
      </trkpt>
      <trkpt lat="43.45245" lon="5.42064">
        <ele>327.8</ele>
        <time>2021-09-28T12:11:35Z</time>
      </trkpt>
      <trkpt lat="43.45248" lon="5.42072">
        <ele>301.9</ele>
        <time>2021-09-28T12:11:46Z</time>
      </trkpt>
      <trkpt lat="43.45251" lon="5.4208">
        <ele>319.5</ele>
        <time>2021-09-28T12:11:56Z</time>
      </trkpt>
      <trkpt lat="43.45254" lon="5.42088">
        <ele>320.7</ele>
        <time>2021-09-28T12:12:07Z</time>
      </trkpt>
      <trkpt lat="43.45258" lon="5.42095">
        <ele>331.2</ele>
        <time>2021-09-28T12:12:17Z</time>
      </trkpt>
      <trkpt lat="43.45262" lon="5.42105">
        <ele>329.6</ele>
        <time>2021-09-28T12:12:28Z</time>
      </trkpt>
      <trkpt lat="43.45262" lon="5.42115">
        <ele>314.9</ele>
        <time>2021-09-28T12:12:38Z</time>
      </trkpt>
      <trkpt lat="43.45265" lon="5.42126">
        <ele>316.9</ele>
        <time>2021-09-28T12:12:49Z</time>
      </trkpt>
      <trkpt lat="43.45267" lon="5.42142">
        <ele>326.5</ele>
        <time>2021-09-28T12:12:59Z</time>
      </trkpt>
      <trkpt lat="43.45268" lon="5.42157">
        <ele>317.3</ele>
        <time>2021-09-28T12:13:10Z</time>
      </trkpt>
      <trkpt lat="43.45272" lon="5.42168">
        <ele>332.3</ele>
        <time>2021-09-28T12:13:21Z</time>
      </trkpt>
      <trkpt lat="43.45274" lon="5.42178">
        <ele>325</ele>
        <time>2021-09-28T12:13:31Z</time>
      </trkpt>
      <trkpt lat="43.45278" lon="5.42191">
        <ele>338.2</ele>
        <time>2021-09-28T12:13:42Z</time>
      </trkpt>
      <trkpt lat="43.4528" lon="5.422">
        <ele>306.4</ele>
        <time>2021-09-28T12:13:52Z</time>
      </trkpt>
      <trkpt lat="43.45283" lon="5.42212">
        <ele>315.1</ele>
        <time>2021-09-28T12:14:03Z</time>
      </trkpt>
      <trkpt lat="43.45285" lon="5.42221">
        <ele>337</ele>
        <time>2021-09-28T12:14:13Z</time>
      </trkpt>
      <trkpt lat="43.45287" lon="5.42227">
        <ele>350.6</ele>
        <time>2021-09-28T12:14:24Z</time>
      </trkpt>
      <trkpt lat="43.4529" lon="5.42235">
        <ele>337.4</ele>
        <time>2021-09-28T12:14:35Z</time>
      </trkpt>
      <trkpt lat="43.45294" lon="5.42248">
        <ele>326.9</ele>
        <time>2021-09-28T12:14:45Z</time>
      </trkpt>
      <trkpt lat="43.45297" lon="5.42258">
        <ele>328.4</ele>
        <time>2021-09-28T12:14:56Z</time>
      </trkpt>
      <trkpt lat="43.45301" lon="5.42268">
        <ele>344.8</ele>
        <time>2021-09-28T12:15:07Z</time>
      </trkpt>
      <trkpt lat="43.45304" lon="5.4228">
        <ele>341</ele>
        <time>2021-09-28T12:15:17Z</time>
      </trkpt>
      <trkpt lat="43.45308" lon="5.4229">
        <ele>336.4</ele>
        <time>2021-09-28T12:15:28Z</time>
      </trkpt>
      <trkpt lat="43.45313" lon="5.42307">
        <ele>332.7</ele>
        <time>2021-09-28T12:15:39Z</time>
      </trkpt>
      <trkpt lat="43.45318" lon="5.4232">
        <ele>356.7</ele>
        <time>2021-09-28T12:15:50Z</time>
      </trkpt>
      <trkpt lat="43.45321" lon="5.42331">
        <ele>334.4</ele>
        <time>2021-09-28T12:16:00Z</time>
      </trkpt>
      <trkpt lat="43.45325" lon="5.42344">
        <ele>326.8</ele>
        <time>2021-09-28T12:16:11Z</time>
      </trkpt>
      <trkpt lat="43.45328" lon="5.42356">
        <ele>320.7</ele>
        <time>2021-09-28T12:16:22Z</time>
      </trkpt>
      <trkpt lat="43.45332" lon="5.42369">
        <ele>327.3</ele>
        <time>2021-09-28T12:16:32Z</time>
      </trkpt>
      <trkpt lat="43.45335" lon="5.4238">
        <ele>329.7</ele>
        <time>2021-09-28T12:16:43Z</time>
      </trkpt>
      <trkpt lat="43.45339" lon="5.42394">
        <ele>340.7</ele>
        <time>2021-09-28T12:16:53Z</time>
      </trkpt>
      <trkpt lat="43.4534" lon="5.42407">
        <ele>350.5</ele>
        <time>2021-09-28T12:17:03Z</time>
      </trkpt>
      <trkpt lat="43.45343" lon="5.42416">
        <ele>320.3</ele>
        <time>2021-09-28T12:17:14Z</time>
      </trkpt>
      <trkpt lat="43.45347" lon="5.42428">
        <ele>325.5</ele>
        <time>2021-09-28T12:17:24Z</time>
      </trkpt>
      <trkpt lat="43.45351" lon="5.42435">
        <ele>343.4</ele>
        <time>2021-09-28T12:17:34Z</time>
      </trkpt>
      <trkpt lat="43.45353" lon="5.42448">
        <ele>343.9</ele>
        <time>2021-09-28T12:17:44Z</time>
      </trkpt>
      <trkpt lat="43.45351" lon="5.42456">
        <ele>323</ele>
        <time>2021-09-28T12:17:55Z</time>
      </trkpt>
      <trkpt lat="43.45352" lon="5.42459">
        <ele>337.5</ele>
        <time>2021-09-28T12:18:05Z</time>
      </trkpt>
      <trkpt lat="43.45351" lon="5.42459">
        <ele>323.7</ele>
        <time>2021-09-28T12:18:15Z</time>
      </trkpt>
      <trkpt lat="43.45351" lon="5.4246">
        <ele>350.7</ele>
        <time>2021-09-28T12:18:25Z</time>
      </trkpt>
      <trkpt lat="43.45351" lon="5.4246">
        <ele>334</ele>
        <time>2021-09-28T12:18:36Z</time>
      </trkpt>
      <trkpt lat="43.45351" lon="5.4246">
        <ele>331</ele>
        <time>2021-09-28T12:18:47Z</time>
      </trkpt>
      <trkpt lat="43.45351" lon="5.4246">
        <ele>336.5</ele>
        <time>2021-09-28T12:18:57Z</time>
      </trkpt>
      <trkpt lat="43.45351" lon="5.42461">
        <ele>338.4</ele>
        <time>2021-09-28T12:19:08Z</time>
      </trkpt>
      <trkpt lat="43.45351" lon="5.42463">
        <ele>328.6</ele>
        <time>2021-09-28T12:19:18Z</time>
      </trkpt>
      <trkpt lat="43.45351" lon="5.42463">
        <ele>349.1</ele>
        <time>2021-09-28T12:19:28Z</time>
      </trkpt>
      <trkpt lat="43.45351" lon="5.42463">
        <ele>336.6</ele>
        <time>2021-09-28T12:19:39Z</time>
      </trkpt>
      <trkpt lat="43.45351" lon="5.42463">
        <ele>324.1</ele>
        <time>2021-09-28T12:19:50Z</time>
      </trkpt>
      <trkpt lat="43.45351" lon="5.42463">
        <ele>350.2</ele>
        <time>2021-09-28T12:20:00Z</time>
      </trkpt>
      <trkpt lat="43.45353" lon="5.42466">
        <ele>344.5</ele>
        <time>2021-09-28T12:20:10Z</time>
      </trkpt>
      <trkpt lat="43.45351" lon="5.42468">
        <ele>350.8</ele>
        <time>2021-09-28T12:20:21Z</time>
      </trkpt>
      <trkpt lat="43.45349" lon="5.42476">
        <ele>328</ele>
        <time>2021-09-28T12:20:32Z</time>
      </trkpt>
      <trkpt lat="43.45346" lon="5.42482">
        <ele>346.1</ele>
        <time>2021-09-28T12:20:42Z</time>
      </trkpt>
      <trkpt lat="43.45341" lon="5.42486">
        <ele>345</ele>
        <time>2021-09-28T12:20:53Z</time>
      </trkpt>
      <trkpt lat="43.45334" lon="5.42499">
        <ele>335.2</ele>
        <time>2021-09-28T12:21:04Z</time>
      </trkpt>
      <trkpt lat="43.45328" lon="5.42511">
        <ele>331.8</ele>
        <time>2021-09-28T12:21:14Z</time>
      </trkpt>
      <trkpt lat="43.45323" lon="5.42526">
        <ele>339.4</ele>
        <time>2021-09-28T12:21:25Z</time>
      </trkpt>
      <trkpt lat="43.45321" lon="5.42539">
        <ele>333.3</ele>
        <time>2021-09-28T12:21:35Z</time>
      </trkpt>
      <trkpt lat="43.4532" lon="5.42554">
        <ele>321.4</ele>
        <time>2021-09-28T12:21:45Z</time>
      </trkpt>
      <trkpt lat="43.45321" lon="5.42563">
        <ele>342.6</ele>
        <time>2021-09-28T12:21:56Z</time>
      </trkpt>
      <trkpt lat="43.4532" lon="5.42579">
        <ele>323.9</ele>
        <time>2021-09-28T12:22:07Z</time>
      </trkpt>
      <trkpt lat="43.45321" lon="5.42593">
        <ele>320</ele>
        <time>2021-09-28T12:22:17Z</time>
      </trkpt>
      <trkpt lat="43.45327" lon="5.42607">
        <ele>344.2</ele>
        <time>2021-09-28T12:22:27Z</time>
      </trkpt>
      <trkpt lat="43.45329" lon="5.42623">
        <ele>329.9</ele>
        <time>2021-09-28T12:22:38Z</time>
      </trkpt>
      <trkpt lat="43.45331" lon="5.42631">
        <ele>335.1</ele>
        <time>2021-09-28T12:22:49Z</time>
      </trkpt>
      <trkpt lat="43.45328" lon="5.42642">
        <ele>327.9</ele>
        <time>2021-09-28T12:22:59Z</time>
      </trkpt>
      <trkpt lat="43.45327" lon="5.42653">
        <ele>336.5</ele>
        <time>2021-09-28T12:23:09Z</time>
      </trkpt>
      <trkpt lat="43.45327" lon="5.4267">
        <ele>334.9</ele>
        <time>2021-09-28T12:23:20Z</time>
      </trkpt>
      <trkpt lat="43.45326" lon="5.42684">
        <ele>330.4</ele>
        <time>2021-09-28T12:23:31Z</time>
      </trkpt>
      <trkpt lat="43.45329" lon="5.42697">
        <ele>328.5</ele>
        <time>2021-09-28T12:23:41Z</time>
      </trkpt>
      <trkpt lat="43.4533" lon="5.42714">
        <ele>336.5</ele>
        <time>2021-09-28T12:23:52Z</time>
      </trkpt>
      <trkpt lat="43.45332" lon="5.42725">
        <ele>337.8</ele>
        <time>2021-09-28T12:24:02Z</time>
      </trkpt>
      <trkpt lat="43.45334" lon="5.42734">
        <ele>340.4</ele>
        <time>2021-09-28T12:24:12Z</time>
      </trkpt>
      <trkpt lat="43.45334" lon="5.42748">
        <ele>325.2</ele>
        <time>2021-09-28T12:24:22Z</time>
      </trkpt>
      <trkpt lat="43.45336" lon="5.42764">
        <ele>340.3</ele>
        <time>2021-09-28T12:24:33Z</time>
      </trkpt>
      <trkpt lat="43.45337" lon="5.42774">
        <ele>345.6</ele>
        <time>2021-09-28T12:24:43Z</time>
      </trkpt>
      <trkpt lat="43.45336" lon="5.42786">
        <ele>324.8</ele>
        <time>2021-09-28T12:24:53Z</time>
      </trkpt>
      <trkpt lat="43.45338" lon="5.42803">
        <ele>344.3</ele>
        <time>2021-09-28T12:25:04Z</time>
      </trkpt>
      <trkpt lat="43.45341" lon="5.42813">
        <ele>342</ele>
        <time>2021-09-28T12:25:15Z</time>
      </trkpt>
      <trkpt lat="43.45345" lon="5.42828">
        <ele>333.5</ele>
        <time>2021-09-28T12:25:25Z</time>
      </trkpt>
      <trkpt lat="43.45349" lon="5.42837">
        <ele>334.5</ele>
        <time>2021-09-28T12:25:35Z</time>
      </trkpt>
      <trkpt lat="43.45352" lon="5.42849">
        <ele>331.5</ele>
        <time>2021-09-28T12:25:46Z</time>
      </trkpt>
      <trkpt lat="43.45354" lon="5.42859">
        <ele>348.4</ele>
        <time>2021-09-28T12:25:57Z</time>
      </trkpt>
      <trkpt lat="43.45355" lon="5.4287">
        <ele>323.2</ele>
        <time>2021-09-28T12:26:07Z</time>
      </trkpt>
      <trkpt lat="43.45356" lon="5.42885">
        <ele>318.6</ele>
        <time>2021-09-28T12:26:18Z</time>
      </trkpt>
      <trkpt lat="43.45355" lon="5.42895">
        <ele>327.1</ele>
        <time>2021-09-28T12:26:28Z</time>
      </trkpt>
      <trkpt lat="43.45356" lon="5.42909">
        <ele>328.1</ele>
        <time>2021-09-28T12:26:38Z</time>
      </trkpt>
      <trkpt lat="43.45356" lon="5.42916">
        <ele>324.4</ele>
        <time>2021-09-28T12:26:48Z</time>
      </trkpt>
      <trkpt lat="43.45359" lon="5.42932">
        <ele>307.1</ele>
        <time>2021-09-28T12:26:59Z</time>
      </trkpt>
      <trkpt lat="43.45358" lon="5.42944">
        <ele>327.4</ele>
        <time>2021-09-28T12:27:09Z</time>
      </trkpt>
      <trkpt lat="43.45359" lon="5.42953">
        <ele>334.9</ele>
        <time>2021-09-28T12:27:19Z</time>
      </trkpt>
      <trkpt lat="43.45356" lon="5.42963">
        <ele>325.4</ele>
        <time>2021-09-28T12:27:30Z</time>
      </trkpt>
      <trkpt lat="43.45351" lon="5.4297">
        <ele>329.7</ele>
        <time>2021-09-28T12:27:40Z</time>
      </trkpt>
      <trkpt lat="43.45346" lon="5.42981">
        <ele>331.5</ele>
        <time>2021-09-28T12:27:50Z</time>
      </trkpt>
      <trkpt lat="43.45343" lon="5.42997">
        <ele>318.5</ele>
        <time>2021-09-28T12:28:00Z</time>
      </trkpt>
      <trkpt lat="43.45339" lon="5.43009">
        <ele>322.8</ele>
        <time>2021-09-28T12:28:11Z</time>
      </trkpt>
      <trkpt lat="43.45336" lon="5.43018">
        <ele>323.1</ele>
        <time>2021-09-28T12:28:22Z</time>
      </trkpt>
      <trkpt lat="43.45333" lon="5.43035">
        <ele>330</ele>
        <time>2021-09-28T12:28:32Z</time>
      </trkpt>
      <trkpt lat="43.45332" lon="5.43045">
        <ele>321</ele>
        <time>2021-09-28T12:28:42Z</time>
      </trkpt>
      <trkpt lat="43.45331" lon="5.43059">
        <ele>311</ele>
        <time>2021-09-28T12:28:53Z</time>
      </trkpt>
      <trkpt lat="43.45331" lon="5.43072">
        <ele>343.3</ele>
        <time>2021-09-28T12:29:04Z</time>
      </trkpt>
      <trkpt lat="43.45329" lon="5.43082">
        <ele>327</ele>
        <time>2021-09-28T12:29:14Z</time>
      </trkpt>
      <trkpt lat="43.45327" lon="5.43097">
        <ele>348.5</ele>
        <time>2021-09-28T12:29:25Z</time>
      </trkpt>
      <trkpt lat="43.45328" lon="5.43108">
        <ele>322.6</ele>
        <time>2021-09-28T12:29:36Z</time>
      </trkpt>
      <trkpt lat="43.45329" lon="5.43121">
        <ele>332.5</ele>
        <time>2021-09-28T12:29:46Z</time>
      </trkpt>
      <trkpt lat="43.45331" lon="5.43134">
        <ele>333</ele>
        <time>2021-09-28T12:29:56Z</time>
      </trkpt>
      <trkpt lat="43.45332" lon="5.43147">
        <ele>337.6</ele>
        <time>2021-09-28T12:30:07Z</time>
      </trkpt>
      <trkpt lat="43.45334" lon="5.43156">
        <ele>340.1</ele>
        <time>2021-09-28T12:30:18Z</time>
      </trkpt>
      <trkpt lat="43.45335" lon="5.43166">
        <ele>325.7</ele>
        <time>2021-09-28T12:30:28Z</time>
      </trkpt>
      <trkpt lat="43.45339" lon="5.43177">
        <ele>331.5</ele>
        <time>2021-09-28T12:30:39Z</time>
      </trkpt>
      <trkpt lat="43.45342" lon="5.43189">
        <ele>333</ele>
        <time>2021-09-28T12:30:49Z</time>
      </trkpt>
      <trkpt lat="43.45347" lon="5.43201">
        <ele>350.7</ele>
        <time>2021-09-28T12:30:59Z</time>
      </trkpt>
      <trkpt lat="43.45351" lon="5.43213">
        <ele>316.8</ele>
        <time>2021-09-28T12:31:09Z</time>
      </trkpt>
      <trkpt lat="43.45352" lon="5.43227">
        <ele>339</ele>
        <time>2021-09-28T12:31:20Z</time>
      </trkpt>
      <trkpt lat="43.45353" lon="5.43241">
        <ele>350.3</ele>
        <time>2021-09-28T12:31:31Z</time>
      </trkpt>
      <trkpt lat="43.45352" lon="5.43251">
        <ele>343.7</ele>
        <time>2021-09-28T12:31:41Z</time>
      </trkpt>
      <trkpt lat="43.45353" lon="5.43265">
        <ele>331.4</ele>
        <time>2021-09-28T12:31:52Z</time>
      </trkpt>
      <trkpt lat="43.45353" lon="5.43279">
        <ele>335.4</ele>
        <time>2021-09-28T12:32:03Z</time>
      </trkpt>
      <trkpt lat="43.45355" lon="5.43293">
        <ele>328.1</ele>
        <time>2021-09-28T12:32:14Z</time>
      </trkpt>
      <trkpt lat="43.45355" lon="5.43302">
        <ele>321.5</ele>
        <time>2021-09-28T12:32:24Z</time>
      </trkpt>
      <trkpt lat="43.45352" lon="5.43312">
        <ele>329</ele>
        <time>2021-09-28T12:32:35Z</time>
      </trkpt>
      <trkpt lat="43.45348" lon="5.43323">
        <ele>336.1</ele>
        <time>2021-09-28T12:32:46Z</time>
      </trkpt>
      <trkpt lat="43.45345" lon="5.4333">
        <ele>309.7</ele>
        <time>2021-09-28T12:32:56Z</time>
      </trkpt>
      <trkpt lat="43.45343" lon="5.43341">
        <ele>312.8</ele>
        <time>2021-09-28T12:33:06Z</time>
      </trkpt>
      <trkpt lat="43.45342" lon="5.4335">
        <ele>324.3</ele>
        <time>2021-09-28T12:33:17Z</time>
      </trkpt>
      <trkpt lat="43.45345" lon="5.43353">
        <ele>329</ele>
        <time>2021-09-28T12:33:27Z</time>
      </trkpt>
      <trkpt lat="43.45348" lon="5.43355">
        <ele>330.8</ele>
        <time>2021-09-28T12:33:38Z</time>
      </trkpt>
      <trkpt lat="43.45348" lon="5.43355">
        <ele>312.3</ele>
        <time>2021-09-28T12:33:48Z</time>
      </trkpt>
      <trkpt lat="43.45348" lon="5.43355">
        <ele>343.3</ele>
        <time>2021-09-28T12:33:58Z</time>
      </trkpt>
      <trkpt lat="43.45348" lon="5.43355">
        <ele>350.5</ele>
        <time>2021-09-28T12:34:09Z</time>
      </trkpt>
      <trkpt lat="43.45348" lon="5.43355">
        <ele>333.5</ele>
        <time>2021-09-28T12:34:20Z</time>
      </trkpt>
      <trkpt lat="43.45346" lon="5.43359">
        <ele>334.7</ele>
        <time>2021-09-28T12:34:30Z</time>
      </trkpt>
      <trkpt lat="43.45343" lon="5.43366">
        <ele>339.3</ele>
        <time>2021-09-28T12:34:40Z</time>
      </trkpt>
      <trkpt lat="43.45339" lon="5.43381">
        <ele>338</ele>
        <time>2021-09-28T12:34:51Z</time>
      </trkpt>
      <trkpt lat="43.45336" lon="5.43394">
        <ele>338.4</ele>
        <time>2021-09-28T12:35:02Z</time>
      </trkpt>
      <trkpt lat="43.45331" lon="5.43405">
        <ele>331.7</ele>
        <time>2021-09-28T12:35:12Z</time>
      </trkpt>
      <trkpt lat="43.45328" lon="5.43413">
        <ele>342.2</ele>
        <time>2021-09-28T12:35:22Z</time>
      </trkpt>
      <trkpt lat="43.45327" lon="5.43426">
        <ele>349</ele>
        <time>2021-09-28T12:35:33Z</time>
      </trkpt>
      <trkpt lat="43.45323" lon="5.43436">
        <ele>337.6</ele>
        <time>2021-09-28T12:35:43Z</time>
      </trkpt>
      <trkpt lat="43.4532" lon="5.43446">
        <ele>339.4</ele>
        <time>2021-09-28T12:35:53Z</time>
      </trkpt>
      <trkpt lat="43.45318" lon="5.43458">
        <ele>336.8</ele>
        <time>2021-09-28T12:36:03Z</time>
      </trkpt>
      <trkpt lat="43.45316" lon="5.4347">
        <ele>343.1</ele>
        <time>2021-09-28T12:36:14Z</time>
      </trkpt>
      <trkpt lat="43.45315" lon="5.43481">
        <ele>363.3</ele>
        <time>2021-09-28T12:36:24Z</time>
      </trkpt>
      <trkpt lat="43.45315" lon="5.43494">
        <ele>334.9</ele>
        <time>2021-09-28T12:36:34Z</time>
      </trkpt>
      <trkpt lat="43.45318" lon="5.43506">
        <ele>344.3</ele>
        <time>2021-09-28T12:36:44Z</time>
      </trkpt>
      <trkpt lat="43.4532" lon="5.43518">
        <ele>344.4</ele>
        <time>2021-09-28T12:36:55Z</time>
      </trkpt>
      <trkpt lat="43.45323" lon="5.4353">
        <ele>338.3</ele>
        <time>2021-09-28T12:37:05Z</time>
      </trkpt>
      <trkpt lat="43.45327" lon="5.43541">
        <ele>349.2</ele>
        <time>2021-09-28T12:37:15Z</time>
      </trkpt>
      <trkpt lat="43.4533" lon="5.43548">
        <ele>350.3</ele>
        <time>2021-09-28T12:37:26Z</time>
      </trkpt>
      <trkpt lat="43.45333" lon="5.43554">
        <ele>349.2</ele>
        <time>2021-09-28T12:37:36Z</time>
      </trkpt>
      <trkpt lat="43.45337" lon="5.43563">
        <ele>354.4</ele>
        <time>2021-09-28T12:37:46Z</time>
      </trkpt>
      <trkpt lat="43.4534" lon="5.43574">
        <ele>347.7</ele>
        <time>2021-09-28T12:37:56Z</time>
      </trkpt>
      <trkpt lat="43.45342" lon="5.43587">
        <ele>340.2</ele>
        <time>2021-09-28T12:38:07Z</time>
      </trkpt>
      <trkpt lat="43.45347" lon="5.436">
        <ele>353.6</ele>
        <time>2021-09-28T12:38:17Z</time>
      </trkpt>
      <trkpt lat="43.45353" lon="5.43609">
        <ele>340</ele>
        <time>2021-09-28T12:38:28Z</time>
      </trkpt>
      <trkpt lat="43.45358" lon="5.43618">
        <ele>342.7</ele>
        <time>2021-09-28T12:38:38Z</time>
      </trkpt>
      <trkpt lat="43.45366" lon="5.43627">
        <ele>321.4</ele>
        <time>2021-09-28T12:38:49Z</time>
      </trkpt>
      <trkpt lat="43.45371" lon="5.43635">
        <ele>340.9</ele>
        <time>2021-09-28T12:38:59Z</time>
      </trkpt>
      <trkpt lat="43.45376" lon="5.43643">
        <ele>338.1</ele>
        <time>2021-09-28T12:39:09Z</time>
      </trkpt>
      <trkpt lat="43.45383" lon="5.43652">
        <ele>344.7</ele>
        <time>2021-09-28T12:39:20Z</time>
      </trkpt>
      <trkpt lat="43.45389" lon="5.43661">
        <ele>343.1</ele>
        <time>2021-09-28T12:39:31Z</time>
      </trkpt>
      <trkpt lat="43.45395" lon="5.43668">
        <ele>351.7</ele>
        <time>2021-09-28T12:39:41Z</time>
      </trkpt>
      <trkpt lat="43.454" lon="5.43674">
        <ele>342.3</ele>
        <time>2021-09-28T12:39:51Z</time>
      </trkpt>
      <trkpt lat="43.45405" lon="5.43686">
        <ele>358.1</ele>
        <time>2021-09-28T12:40:02Z</time>
      </trkpt>
      <trkpt lat="43.4541" lon="5.43695">
        <ele>345.4</ele>
        <time>2021-09-28T12:40:12Z</time>
      </trkpt>
      <trkpt lat="43.45415" lon="5.43704">
        <ele>349.6</ele>
        <time>2021-09-28T12:40:22Z</time>
      </trkpt>
      <trkpt lat="43.45419" lon="5.43713">
        <ele>356.1</ele>
        <time>2021-09-28T12:40:32Z</time>
      </trkpt>
      <trkpt lat="43.45425" lon="5.43725">
        <ele>332.5</ele>
        <time>2021-09-28T12:40:43Z</time>
      </trkpt>
      <trkpt lat="43.45429" lon="5.43734">
        <ele>349.2</ele>
        <time>2021-09-28T12:40:53Z</time>
      </trkpt>
      <trkpt lat="43.45435" lon="5.43742">
        <ele>353.3</ele>
        <time>2021-09-28T12:41:03Z</time>
      </trkpt>
      <trkpt lat="43.4544" lon="5.43744">
        <ele>351.9</ele>
        <time>2021-09-28T12:41:13Z</time>
      </trkpt>
      <trkpt lat="43.45441" lon="5.43743">
        <ele>355.3</ele>
        <time>2021-09-28T12:41:24Z</time>
      </trkpt>
      <trkpt lat="43.45441" lon="5.43742">
        <ele>355.4</ele>
        <time>2021-09-28T12:41:34Z</time>
      </trkpt>
      <trkpt lat="43.45441" lon="5.43742">
        <ele>355.7</ele>
        <time>2021-09-28T12:41:44Z</time>
      </trkpt>
      <trkpt lat="43.45441" lon="5.43742">
        <ele>335.3</ele>
        <time>2021-09-28T12:41:55Z</time>
      </trkpt>
      <trkpt lat="43.45441" lon="5.43742">
        <ele>351.8</ele>
        <time>2021-09-28T12:42:05Z</time>
      </trkpt>
      <trkpt lat="43.45441" lon="5.43742">
        <ele>332.3</ele>
        <time>2021-09-28T12:42:16Z</time>
      </trkpt>
      <trkpt lat="43.45441" lon="5.43742">
        <ele>349.5</ele>
        <time>2021-09-28T12:42:27Z</time>
      </trkpt>
      <trkpt lat="43.45441" lon="5.43742">
        <ele>337.2</ele>
        <time>2021-09-28T12:42:38Z</time>
      </trkpt>
      <trkpt lat="43.45441" lon="5.43742">
        <ele>351.4</ele>
        <time>2021-09-28T12:42:48Z</time>
      </trkpt>
      <trkpt lat="43.45441" lon="5.43742">
        <ele>337.6</ele>
        <time>2021-09-28T12:42:59Z</time>
      </trkpt>
      <trkpt lat="43.45441" lon="5.43742">
        <ele>350.7</ele>
        <time>2021-09-28T12:43:10Z</time>
      </trkpt>
      <trkpt lat="43.45441" lon="5.43742">
        <ele>359.1</ele>
        <time>2021-09-28T12:43:20Z</time>
      </trkpt>
      <trkpt lat="43.45441" lon="5.43742">
        <ele>346.2</ele>
        <time>2021-09-28T12:43:31Z</time>
      </trkpt>
      <trkpt lat="43.45441" lon="5.43742">
        <ele>353.8</ele>
        <time>2021-09-28T12:43:42Z</time>
      </trkpt>
      <trkpt lat="43.45442" lon="5.43742">
        <ele>337.7</ele>
        <time>2021-09-28T12:43:52Z</time>
      </trkpt>
      <trkpt lat="43.45442" lon="5.43742">
        <ele>334.7</ele>
        <time>2021-09-28T12:44:03Z</time>
      </trkpt>
      <trkpt lat="43.45442" lon="5.43742">
        <ele>343.1</ele>
        <time>2021-09-28T12:44:14Z</time>
      </trkpt>
      <trkpt lat="43.45442" lon="5.43742">
        <ele>355.3</ele>
        <time>2021-09-28T12:44:24Z</time>
      </trkpt>
      <trkpt lat="43.45442" lon="5.43742">
        <ele>350.7</ele>
        <time>2021-09-28T12:44:34Z</time>
      </trkpt>
      <trkpt lat="43.45442" lon="5.43742">
        <ele>340.1</ele>
        <time>2021-09-28T12:44:45Z</time>
      </trkpt>
      <trkpt lat="43.45442" lon="5.43742">
        <ele>345.6</ele>
        <time>2021-09-28T12:44:56Z</time>
      </trkpt>
      <trkpt lat="43.45442" lon="5.43742">
        <ele>357.6</ele>
        <time>2021-09-28T12:45:06Z</time>
      </trkpt>
      <trkpt lat="43.45442" lon="5.43742">
        <ele>346.3</ele>
        <time>2021-09-28T12:45:17Z</time>
      </trkpt>
      <trkpt lat="43.45442" lon="5.43742">
        <ele>352.9</ele>
        <time>2021-09-28T12:45:27Z</time>
      </trkpt>
      <trkpt lat="43.45442" lon="5.43742">
        <ele>348.7</ele>
        <time>2021-09-28T12:45:37Z</time>
      </trkpt>
      <trkpt lat="43.45442" lon="5.43742">
        <ele>342.1</ele>
        <time>2021-09-28T12:45:48Z</time>
      </trkpt>
      <trkpt lat="43.45442" lon="5.43742">
        <ele>347.8</ele>
        <time>2021-09-28T12:45:59Z</time>
      </trkpt>
      <trkpt lat="43.45442" lon="5.43742">
        <ele>341.9</ele>
        <time>2021-09-28T12:46:09Z</time>
      </trkpt>
      <trkpt lat="43.45442" lon="5.43742">
        <ele>362.3</ele>
        <time>2021-09-28T12:46:20Z</time>
      </trkpt>
      <trkpt lat="43.45442" lon="5.43742">
        <ele>346</ele>
        <time>2021-09-28T12:46:31Z</time>
      </trkpt>
      <trkpt lat="43.45442" lon="5.43742">
        <ele>345.8</ele>
        <time>2021-09-28T12:46:41Z</time>
      </trkpt>
      <trkpt lat="43.45442" lon="5.43742">
        <ele>367.3</ele>
        <time>2021-09-28T12:46:52Z</time>
      </trkpt>
      <trkpt lat="43.45442" lon="5.43742">
        <ele>350.6</ele>
        <time>2021-09-28T12:47:02Z</time>
      </trkpt>
      <trkpt lat="43.45442" lon="5.43742">
        <ele>361.5</ele>
        <time>2021-09-28T12:47:12Z</time>
      </trkpt>
      <trkpt lat="43.45442" lon="5.43742">
        <ele>344.4</ele>
        <time>2021-09-28T12:47:23Z</time>
      </trkpt>
      <trkpt lat="43.45443" lon="5.43744">
        <ele>354.2</ele>
        <time>2021-09-28T12:47:34Z</time>
      </trkpt>
      <trkpt lat="43.45447" lon="5.43753">
        <ele>336.3</ele>
        <time>2021-09-28T12:47:44Z</time>
      </trkpt>
      <trkpt lat="43.45452" lon="5.43758">
        <ele>333.6</ele>
        <time>2021-09-28T12:47:54Z</time>
      </trkpt>
      <trkpt lat="43.45455" lon="5.43766">
        <ele>352.6</ele>
        <time>2021-09-28T12:48:05Z</time>
      </trkpt>
      <trkpt lat="43.4546" lon="5.43772">
        <ele>358.1</ele>
        <time>2021-09-28T12:48:15Z</time>
      </trkpt>
      <trkpt lat="43.45465" lon="5.43781">
        <ele>372.8</ele>
        <time>2021-09-28T12:48:25Z</time>
      </trkpt>
      <trkpt lat="43.4547" lon="5.43791">
        <ele>363.2</ele>
        <time>2021-09-28T12:48:35Z</time>
      </trkpt>
      <trkpt lat="43.45476" lon="5.43801">
        <ele>350</ele>
        <time>2021-09-28T12:48:46Z</time>
      </trkpt>
      <trkpt lat="43.45481" lon="5.43808">
        <ele>359.3</ele>
        <time>2021-09-28T12:48:57Z</time>
      </trkpt>
      <trkpt lat="43.45488" lon="5.43816">
        <ele>354.5</ele>
        <time>2021-09-28T12:49:07Z</time>
      </trkpt>
      <trkpt lat="43.45496" lon="5.43822">
        <ele>354.1</ele>
        <time>2021-09-28T12:49:18Z</time>
      </trkpt>
      <trkpt lat="43.45502" lon="5.43827">
        <ele>366.1</ele>
        <time>2021-09-28T12:49:29Z</time>
      </trkpt>
      <trkpt lat="43.45508" lon="5.43836">
        <ele>324.5</ele>
        <time>2021-09-28T12:49:39Z</time>
      </trkpt>
      <trkpt lat="43.45515" lon="5.43843">
        <ele>360.7</ele>
        <time>2021-09-28T12:49:49Z</time>
      </trkpt>
      <trkpt lat="43.4552" lon="5.43851">
        <ele>355.1</ele>
        <time>2021-09-28T12:50:00Z</time>
      </trkpt>
      <trkpt lat="43.45525" lon="5.43859">
        <ele>363.7</ele>
        <time>2021-09-28T12:50:10Z</time>
      </trkpt>
      <trkpt lat="43.4553" lon="5.43871">
        <ele>380.2</ele>
        <time>2021-09-28T12:50:20Z</time>
      </trkpt>
      <trkpt lat="43.45536" lon="5.43878">
        <ele>358.2</ele>
        <time>2021-09-28T12:50:31Z</time>
      </trkpt>
      <trkpt lat="43.45543" lon="5.43886">
        <ele>346.6</ele>
        <time>2021-09-28T12:50:42Z</time>
      </trkpt>
      <trkpt lat="43.4555" lon="5.43895">
        <ele>371.8</ele>
        <time>2021-09-28T12:50:53Z</time>
      </trkpt>
      <trkpt lat="43.45553" lon="5.43901">
        <ele>351.7</ele>
        <time>2021-09-28T12:51:03Z</time>
      </trkpt>
      <trkpt lat="43.45561" lon="5.43907">
        <ele>367.7</ele>
        <time>2021-09-28T12:51:14Z</time>
      </trkpt>
      <trkpt lat="43.45568" lon="5.43913">
        <ele>376.5</ele>
        <time>2021-09-28T12:51:25Z</time>
      </trkpt>
      <trkpt lat="43.45574" lon="5.43921">
        <ele>367.9</ele>
        <time>2021-09-28T12:51:35Z</time>
      </trkpt>
      <trkpt lat="43.4558" lon="5.43929">
        <ele>358.5</ele>
        <time>2021-09-28T12:51:46Z</time>
      </trkpt>
      <trkpt lat="43.45586" lon="5.43937">
        <ele>368.5</ele>
        <time>2021-09-28T12:51:57Z</time>
      </trkpt>
      <trkpt lat="43.45592" lon="5.43944">
        <ele>359.7</ele>
        <time>2021-09-28T12:52:07Z</time>
      </trkpt>
      <trkpt lat="43.45598" lon="5.43949">
        <ele>369.4</ele>
        <time>2021-09-28T12:52:18Z</time>
      </trkpt>
      <trkpt lat="43.45606" lon="5.43957">
        <ele>375.7</ele>
        <time>2021-09-28T12:52:29Z</time>
      </trkpt>
      <trkpt lat="43.45613" lon="5.43963">
        <ele>372.4</ele>
        <time>2021-09-28T12:52:39Z</time>
      </trkpt>
      <trkpt lat="43.45618" lon="5.43971">
        <ele>367.6</ele>
        <time>2021-09-28T12:52:49Z</time>
      </trkpt>
      <trkpt lat="43.45623" lon="5.4398">
        <ele>384.2</ele>
        <time>2021-09-28T12:53:00Z</time>
      </trkpt>
      <trkpt lat="43.45628" lon="5.43985">
        <ele>371.8</ele>
        <time>2021-09-28T12:53:10Z</time>
      </trkpt>
      <trkpt lat="43.45635" lon="5.43995">
        <ele>379.5</ele>
        <time>2021-09-28T12:53:20Z</time>
      </trkpt>
      <trkpt lat="43.45641" lon="5.44002">
        <ele>369.9</ele>
        <time>2021-09-28T12:53:30Z</time>
      </trkpt>
      <trkpt lat="43.4565" lon="5.44005">
        <ele>373.9</ele>
        <time>2021-09-28T12:53:41Z</time>
      </trkpt>
      <trkpt lat="43.45651" lon="5.44006">
        <ele>370.6</ele>
        <time>2021-09-28T12:53:52Z</time>
      </trkpt>
      <trkpt lat="43.45652" lon="5.44008">
        <ele>379.9</ele>
        <time>2021-09-28T12:54:02Z</time>
      </trkpt>
      <trkpt lat="43.45652" lon="5.44008">
        <ele>377.3</ele>
        <time>2021-09-28T12:54:13Z</time>
      </trkpt>
      <trkpt lat="43.45652" lon="5.44008">
        <ele>357.2</ele>
        <time>2021-09-28T12:54:23Z</time>
      </trkpt>
      <trkpt lat="43.45652" lon="5.44008">
        <ele>361.6</ele>
        <time>2021-09-28T12:54:33Z</time>
      </trkpt>
      <trkpt lat="43.45652" lon="5.44008">
        <ele>361.9</ele>
        <time>2021-09-28T12:54:43Z</time>
      </trkpt>
      <trkpt lat="43.45652" lon="5.44009">
        <ele>383.4</ele>
        <time>2021-09-28T12:54:54Z</time>
      </trkpt>
      <trkpt lat="43.45652" lon="5.44009">
        <ele>365.6</ele>
        <time>2021-09-28T12:55:04Z</time>
      </trkpt>
      <trkpt lat="43.45652" lon="5.44009">
        <ele>373.7</ele>
        <time>2021-09-28T12:55:14Z</time>
      </trkpt>
      <trkpt lat="43.45652" lon="5.44009">
        <ele>354.4</ele>
        <time>2021-09-28T12:55:25Z</time>
      </trkpt>
      <trkpt lat="43.45652" lon="5.44009">
        <ele>370.7</ele>
        <time>2021-09-28T12:55:35Z</time>
      </trkpt>
      <trkpt lat="43.4565" lon="5.44008">
        <ele>388.4</ele>
        <time>2021-09-28T12:55:45Z</time>
      </trkpt>
      <trkpt lat="43.45649" lon="5.44009">
        <ele>373.1</ele>
        <time>2021-09-28T12:55:56Z</time>
      </trkpt>
      <trkpt lat="43.45655" lon="5.44018">
        <ele>373.6</ele>
        <time>2021-09-28T12:56:07Z</time>
      </trkpt>
      <trkpt lat="43.4566" lon="5.44025">
        <ele>366.7</ele>
        <time>2021-09-28T12:56:17Z</time>
      </trkpt>
      <trkpt lat="43.45664" lon="5.44033">
        <ele>372.1</ele>
        <time>2021-09-28T12:56:27Z</time>
      </trkpt>
      <trkpt lat="43.45669" lon="5.44036">
        <ele>374.7</ele>
        <time>2021-09-28T12:56:38Z</time>
      </trkpt>
      <trkpt lat="43.45669" lon="5.44046">
        <ele>371.3</ele>
        <time>2021-09-28T12:56:49Z</time>
      </trkpt>
      <trkpt lat="43.45671" lon="5.44061">
        <ele>363.5</ele>
        <time>2021-09-28T12:56:59Z</time>
      </trkpt>
      <trkpt lat="43.45674" lon="5.44072">
        <ele>366.6</ele>
        <time>2021-09-28T12:57:10Z</time>
      </trkpt>
      <trkpt lat="43.45681" lon="5.44078">
        <ele>376.9</ele>
        <time>2021-09-28T12:57:21Z</time>
      </trkpt>
      <trkpt lat="43.45682" lon="5.44088">
        <ele>383.2</ele>
        <time>2021-09-28T12:57:32Z</time>
      </trkpt>
      <trkpt lat="43.45684" lon="5.44104">
        <ele>392.3</ele>
        <time>2021-09-28T12:57:42Z</time>
      </trkpt>
      <trkpt lat="43.45689" lon="5.44115">
        <ele>366.4</ele>
        <time>2021-09-28T12:57:53Z</time>
      </trkpt>
      <trkpt lat="43.45692" lon="5.44129">
        <ele>392.3</ele>
        <time>2021-09-28T12:58:04Z</time>
      </trkpt>
      <trkpt lat="43.45694" lon="5.44137">
        <ele>384.4</ele>
        <time>2021-09-28T12:58:14Z</time>
      </trkpt>
      <trkpt lat="43.45701" lon="5.44147">
        <ele>372.3</ele>
        <time>2021-09-28T12:58:24Z</time>
      </trkpt>
      <trkpt lat="43.45709" lon="5.44155">
        <ele>381.3</ele>
        <time>2021-09-28T12:58:35Z</time>
      </trkpt>
      <trkpt lat="43.45718" lon="5.4416">
        <ele>386.6</ele>
        <time>2021-09-28T12:58:46Z</time>
      </trkpt>
      <trkpt lat="43.45724" lon="5.44169">
        <ele>353.3</ele>
        <time>2021-09-28T12:58:56Z</time>
      </trkpt>
      <trkpt lat="43.45734" lon="5.44184">
        <ele>365.4</ele>
        <time>2021-09-28T12:59:07Z</time>
      </trkpt>
      <trkpt lat="43.4574" lon="5.44192">
        <ele>360.8</ele>
        <time>2021-09-28T12:59:17Z</time>
      </trkpt>
      <trkpt lat="43.45741" lon="5.44192">
        <ele>350.2</ele>
        <time>2021-09-28T12:59:27Z</time>
      </trkpt>
      <trkpt lat="43.45747" lon="5.44202">
        <ele>366.9</ele>
        <time>2021-09-28T12:59:38Z</time>
      </trkpt>
      <trkpt lat="43.45752" lon="5.4421">
        <ele>354.6</ele>
        <time>2021-09-28T12:59:48Z</time>
      </trkpt>
      <trkpt lat="43.45761" lon="5.44218">
        <ele>362</ele>
        <time>2021-09-28T12:59:59Z</time>
      </trkpt>
      <trkpt lat="43.45766" lon="5.44223">
        <ele>365</ele>
        <time>2021-09-28T13:00:09Z</time>
      </trkpt>
      <trkpt lat="43.45773" lon="5.44228">
        <ele>383.3</ele>
        <time>2021-09-28T13:00:20Z</time>
      </trkpt>
      <trkpt lat="43.45782" lon="5.44231">
        <ele>380.7</ele>
        <time>2021-09-28T13:00:30Z</time>
      </trkpt>
      <trkpt lat="43.45788" lon="5.44229">
        <ele>380.8</ele>
        <time>2021-09-28T13:00:40Z</time>
      </trkpt>
      <trkpt lat="43.45795" lon="5.44233">
        <ele>384.7</ele>
        <time>2021-09-28T13:00:50Z</time>
      </trkpt>
      <trkpt lat="43.45806" lon="5.4424">
        <ele>380.8</ele>
        <time>2021-09-28T13:01:01Z</time>
      </trkpt>
      <trkpt lat="43.45811" lon="5.44241">
        <ele>381.3</ele>
        <time>2021-09-28T13:01:11Z</time>
      </trkpt>
      <trkpt lat="43.4582" lon="5.44246">
        <ele>361</ele>
        <time>2021-09-28T13:01:21Z</time>
      </trkpt>
      <trkpt lat="43.4583" lon="5.44247">
        <ele>375.6</ele>
        <time>2021-09-28T13:01:32Z</time>
      </trkpt>
      <trkpt lat="43.45838" lon="5.44252">
        <ele>366.2</ele>
        <time>2021-09-28T13:01:43Z</time>
      </trkpt>
      <trkpt lat="43.45843" lon="5.44256">
        <ele>356.3</ele>
        <time>2021-09-28T13:01:53Z</time>
      </trkpt>
      <trkpt lat="43.45851" lon="5.44258">
        <ele>389.7</ele>
        <time>2021-09-28T13:02:03Z</time>
      </trkpt>
      <trkpt lat="43.4586" lon="5.44262">
        <ele>368.9</ele>
        <time>2021-09-28T13:02:14Z</time>
      </trkpt>
      <trkpt lat="43.4587" lon="5.44267">
        <ele>360</ele>
        <time>2021-09-28T13:02:25Z</time>
      </trkpt>
      <trkpt lat="43.45871" lon="5.44269">
        <ele>365.5</ele>
        <time>2021-09-28T13:02:35Z</time>
      </trkpt>
      <trkpt lat="43.4588" lon="5.44278">
        <ele>351.3</ele>
        <time>2021-09-28T13:02:45Z</time>
      </trkpt>
      <trkpt lat="43.45892" lon="5.44284">
        <ele>351.1</ele>
        <time>2021-09-28T13:02:56Z</time>
      </trkpt>
      <trkpt lat="43.45901" lon="5.44288">
        <ele>355</ele>
        <time>2021-09-28T13:03:06Z</time>
      </trkpt>
      <trkpt lat="43.45911" lon="5.44291">
        <ele>365.6</ele>
        <time>2021-09-28T13:03:16Z</time>
      </trkpt>
      <trkpt lat="43.45922" lon="5.44292">
        <ele>360.5</ele>
        <time>2021-09-28T13:03:27Z</time>
      </trkpt>
      <trkpt lat="43.45929" lon="5.44293">
        <ele>348.1</ele>
        <time>2021-09-28T13:03:37Z</time>
      </trkpt>
      <trkpt lat="43.45936" lon="5.44294">
        <ele>345.7</ele>
        <time>2021-09-28T13:03:47Z</time>
      </trkpt>
      <trkpt lat="43.45936" lon="5.44293">
        <ele>364.3</ele>
        <time>2021-09-28T13:03:57Z</time>
      </trkpt>
      <trkpt lat="43.45939" lon="5.4429">
        <ele>367.7</ele>
        <time>2021-09-28T13:04:08Z</time>
      </trkpt>
      <trkpt lat="43.45942" lon="5.44288">
        <ele>353.5</ele>
        <time>2021-09-28T13:04:19Z</time>
      </trkpt>
      <trkpt lat="43.45942" lon="5.44288">
        <ele>341.1</ele>
        <time>2021-09-28T13:04:29Z</time>
      </trkpt>
      <trkpt lat="43.45946" lon="5.44284">
        <ele>354.6</ele>
        <time>2021-09-28T13:04:40Z</time>
      </trkpt>
      <trkpt lat="43.45947" lon="5.44282">
        <ele>358.5</ele>
        <time>2021-09-28T13:04:50Z</time>
      </trkpt>
      <trkpt lat="43.45951" lon="5.44281">
        <ele>360.9</ele>
        <time>2021-09-28T13:05:00Z</time>
      </trkpt>
      <trkpt lat="43.45951" lon="5.44281">
        <ele>356</ele>
        <time>2021-09-28T13:05:10Z</time>
      </trkpt>
      <trkpt lat="43.45951" lon="5.44281">
        <ele>336.1</ele>
        <time>2021-09-28T13:05:21Z</time>
      </trkpt>
      <trkpt lat="43.45951" lon="5.44281">
        <ele>327.8</ele>
        <time>2021-09-28T13:05:32Z</time>
      </trkpt>
      <trkpt lat="43.45951" lon="5.44281">
        <ele>356.5</ele>
        <time>2021-09-28T13:05:42Z</time>
      </trkpt>
      <trkpt lat="43.45953" lon="5.4428">
        <ele>354.9</ele>
        <time>2021-09-28T13:05:53Z</time>
      </trkpt>
      <trkpt lat="43.45952" lon="5.44279">
        <ele>346.6</ele>
        <time>2021-09-28T13:06:03Z</time>
      </trkpt>
      <trkpt lat="43.45952" lon="5.44279">
        <ele>346.4</ele>
        <time>2021-09-28T13:06:13Z</time>
      </trkpt>
      <trkpt lat="43.45952" lon="5.44279">
        <ele>337.3</ele>
        <time>2021-09-28T13:06:23Z</time>
      </trkpt>
      <trkpt lat="43.45952" lon="5.44279">
        <ele>345.8</ele>
        <time>2021-09-28T13:06:34Z</time>
      </trkpt>
      <trkpt lat="43.45951" lon="5.44278">
        <ele>341</ele>
        <time>2021-09-28T13:06:44Z</time>
      </trkpt>
      <trkpt lat="43.45951" lon="5.44277">
        <ele>329.1</ele>
        <time>2021-09-28T13:06:54Z</time>
      </trkpt>
      <trkpt lat="43.45951" lon="5.44277">
        <ele>345</ele>
        <time>2021-09-28T13:07:05Z</time>
      </trkpt>
      <trkpt lat="43.45951" lon="5.44277">
        <ele>340.1</ele>
        <time>2021-09-28T13:07:16Z</time>
      </trkpt>
      <trkpt lat="43.45951" lon="5.44277">
        <ele>347</ele>
        <time>2021-09-28T13:07:26Z</time>
      </trkpt>
      <trkpt lat="43.45951" lon="5.44277">
        <ele>339.1</ele>
        <time>2021-09-28T13:07:36Z</time>
      </trkpt>
      <trkpt lat="43.45952" lon="5.44277">
        <ele>337.7</ele>
        <time>2021-09-28T13:07:47Z</time>
      </trkpt>
      <trkpt lat="43.45952" lon="5.44287">
        <ele>341.1</ele>
        <time>2021-09-28T13:07:58Z</time>
      </trkpt>
      <trkpt lat="43.45954" lon="5.44284">
        <ele>348.2</ele>
        <time>2021-09-28T13:08:08Z</time>
      </trkpt>
      <trkpt lat="43.45954" lon="5.44284">
        <ele>338.1</ele>
        <time>2021-09-28T13:08:18Z</time>
      </trkpt>
      <trkpt lat="43.45954" lon="5.44284">
        <ele>346.6</ele>
        <time>2021-09-28T13:08:29Z</time>
      </trkpt>
      <trkpt lat="43.45954" lon="5.44284">
        <ele>341.6</ele>
        <time>2021-09-28T13:08:40Z</time>
      </trkpt>
      <trkpt lat="43.45954" lon="5.44284">
        <ele>336.6</ele>
        <time>2021-09-28T13:08:50Z</time>
      </trkpt>
      <trkpt lat="43.45954" lon="5.44284">
        <ele>335.3</ele>
        <time>2021-09-28T13:09:01Z</time>
      </trkpt>
      <trkpt lat="43.45956" lon="5.44279">
        <ele>356.1</ele>
        <time>2021-09-28T13:09:11Z</time>
      </trkpt>
      <trkpt lat="43.4595" lon="5.44282">
        <ele>352.9</ele>
        <time>2021-09-28T13:09:21Z</time>
      </trkpt>
      <trkpt lat="43.45941" lon="5.44283">
        <ele>345.6</ele>
        <time>2021-09-28T13:09:32Z</time>
      </trkpt>
      <trkpt lat="43.45933" lon="5.44285">
        <ele>325.8</ele>
        <time>2021-09-28T13:09:42Z</time>
      </trkpt>
      <trkpt lat="43.45929" lon="5.44285">
        <ele>351.6</ele>
        <time>2021-09-28T13:09:52Z</time>
      </trkpt>
      <trkpt lat="43.45923" lon="5.44281">
        <ele>354.5</ele>
        <time>2021-09-28T13:10:03Z</time>
      </trkpt>
      <trkpt lat="43.45917" lon="5.44276">
        <ele>363</ele>
        <time>2021-09-28T13:10:13Z</time>
      </trkpt>
      <trkpt lat="43.4591" lon="5.44273">
        <ele>352.2</ele>
        <time>2021-09-28T13:10:24Z</time>
      </trkpt>
      <trkpt lat="43.45903" lon="5.4427">
        <ele>342.2</ele>
        <time>2021-09-28T13:10:35Z</time>
      </trkpt>
      <trkpt lat="43.45898" lon="5.44265">
        <ele>372.9</ele>
        <time>2021-09-28T13:10:45Z</time>
      </trkpt>
      <trkpt lat="43.45888" lon="5.44261">
        <ele>347.7</ele>
        <time>2021-09-28T13:10:56Z</time>
      </trkpt>
      <trkpt lat="43.4588" lon="5.44258">
        <ele>388.1</ele>
        <time>2021-09-28T13:11:07Z</time>
      </trkpt>
      <trkpt lat="43.45873" lon="5.44256">
        <ele>360.1</ele>
        <time>2021-09-28T13:11:17Z</time>
      </trkpt>
      <trkpt lat="43.45871" lon="5.44254">
        <ele>358.3</ele>
        <time>2021-09-28T13:11:27Z</time>
      </trkpt>
      <trkpt lat="43.45863" lon="5.44252">
        <ele>360.3</ele>
        <time>2021-09-28T13:11:38Z</time>
      </trkpt>
      <trkpt lat="43.45853" lon="5.44247">
        <ele>357.6</ele>
        <time>2021-09-28T13:11:49Z</time>
      </trkpt>
      <trkpt lat="43.45847" lon="5.44242">
        <ele>370.8</ele>
        <time>2021-09-28T13:11:59Z</time>
      </trkpt>
      <trkpt lat="43.45839" lon="5.44236">
        <ele>362</ele>
        <time>2021-09-28T13:12:10Z</time>
      </trkpt>
      <trkpt lat="43.45828" lon="5.44232">
        <ele>370.4</ele>
        <time>2021-09-28T13:12:21Z</time>
      </trkpt>
      <trkpt lat="43.45822" lon="5.44228">
        <ele>367.2</ele>
        <time>2021-09-28T13:12:32Z</time>
      </trkpt>
      <trkpt lat="43.45821" lon="5.44227">
        <ele>389.8</ele>
        <time>2021-09-28T13:12:42Z</time>
      </trkpt>
      <trkpt lat="43.45811" lon="5.44222">
        <ele>372.5</ele>
        <time>2021-09-28T13:12:53Z</time>
      </trkpt>
      <trkpt lat="43.45803" lon="5.44221">
        <ele>379.2</ele>
        <time>2021-09-28T13:13:03Z</time>
      </trkpt>
      <trkpt lat="43.45796" lon="5.4422">
        <ele>365</ele>
        <time>2021-09-28T13:13:13Z</time>
      </trkpt>
      <trkpt lat="43.45789" lon="5.44217">
        <ele>372.1</ele>
        <time>2021-09-28T13:13:24Z</time>
      </trkpt>
      <trkpt lat="43.45783" lon="5.44216">
        <ele>367.8</ele>
        <time>2021-09-28T13:13:35Z</time>
      </trkpt>
      <trkpt lat="43.45779" lon="5.44214">
        <ele>377.4</ele>
        <time>2021-09-28T13:13:45Z</time>
      </trkpt>
      <trkpt lat="43.45776" lon="5.44209">
        <ele>379.5</ele>
        <time>2021-09-28T13:13:55Z</time>
      </trkpt>
      <trkpt lat="43.45768" lon="5.44201">
        <ele>381.4</ele>
        <time>2021-09-28T13:14:06Z</time>
      </trkpt>
      <trkpt lat="43.45759" lon="5.44194">
        <ele>373.5</ele>
        <time>2021-09-28T13:14:16Z</time>
      </trkpt>
      <trkpt lat="43.45752" lon="5.44187">
        <ele>368</ele>
        <time>2021-09-28T13:14:27Z</time>
      </trkpt>
      <trkpt lat="43.45747" lon="5.4418">
        <ele>389.8</ele>
        <time>2021-09-28T13:14:37Z</time>
      </trkpt>
      <trkpt lat="43.4574" lon="5.44176">
        <ele>369.8</ele>
        <time>2021-09-28T13:14:48Z</time>
      </trkpt>
      <trkpt lat="43.45734" lon="5.44169">
        <ele>377.8</ele>
        <time>2021-09-28T13:14:59Z</time>
      </trkpt>
      <trkpt lat="43.45727" lon="5.44162">
        <ele>361.4</ele>
        <time>2021-09-28T13:15:09Z</time>
      </trkpt>
      <trkpt lat="43.4572" lon="5.44153">
        <ele>365.4</ele>
        <time>2021-09-28T13:15:20Z</time>
      </trkpt>
      <trkpt lat="43.45716" lon="5.44146">
        <ele>384.4</ele>
        <time>2021-09-28T13:15:30Z</time>
      </trkpt>
      <trkpt lat="43.45712" lon="5.44142">
        <ele>387.2</ele>
        <time>2021-09-28T13:15:41Z</time>
      </trkpt>
      <trkpt lat="43.45706" lon="5.44134">
        <ele>368.6</ele>
        <time>2021-09-28T13:15:51Z</time>
      </trkpt>
      <trkpt lat="43.45706" lon="5.44128">
        <ele>360</ele>
        <time>2021-09-28T13:16:02Z</time>
      </trkpt>
      <trkpt lat="43.45705" lon="5.44128">
        <ele>356.1</ele>
        <time>2021-09-28T13:16:13Z</time>
      </trkpt>
      <trkpt lat="43.45704" lon="5.44128">
        <ele>378.2</ele>
        <time>2021-09-28T13:16:23Z</time>
      </trkpt>
      <trkpt lat="43.45704" lon="5.44127">
        <ele>382.8</ele>
        <time>2021-09-28T13:16:34Z</time>
      </trkpt>
      <trkpt lat="43.45704" lon="5.44127">
        <ele>366.1</ele>
        <time>2021-09-28T13:16:44Z</time>
      </trkpt>
      <trkpt lat="43.45704" lon="5.44127">
        <ele>375.5</ele>
        <time>2021-09-28T13:16:54Z</time>
      </trkpt>
      <trkpt lat="43.45702" lon="5.44122">
        <ele>366.6</ele>
        <time>2021-09-28T13:17:04Z</time>
      </trkpt>
      <trkpt lat="43.45699" lon="5.44115">
        <ele>362.5</ele>
        <time>2021-09-28T13:17:15Z</time>
      </trkpt>
      <trkpt lat="43.45696" lon="5.44104">
        <ele>382</ele>
        <time>2021-09-28T13:17:25Z</time>
      </trkpt>
      <trkpt lat="43.45689" lon="5.4409">
        <ele>391.3</ele>
        <time>2021-09-28T13:17:35Z</time>
      </trkpt>
      <trkpt lat="43.45686" lon="5.44084">
        <ele>373.6</ele>
        <time>2021-09-28T13:17:46Z</time>
      </trkpt>
      <trkpt lat="43.45681" lon="5.44073">
        <ele>374.6</ele>
        <time>2021-09-28T13:17:57Z</time>
      </trkpt>
      <trkpt lat="43.45679" lon="5.44062">
        <ele>391.5</ele>
        <time>2021-09-28T13:18:07Z</time>
      </trkpt>
      <trkpt lat="43.45674" lon="5.44052">
        <ele>372.3</ele>
        <time>2021-09-28T13:18:18Z</time>
      </trkpt>
      <trkpt lat="43.45672" lon="5.44042">
        <ele>365.1</ele>
        <time>2021-09-28T13:18:28Z</time>
      </trkpt>
      <trkpt lat="43.45667" lon="5.44031">
        <ele>373.1</ele>
        <time>2021-09-28T13:18:38Z</time>
      </trkpt>
      <trkpt lat="43.45662" lon="5.44021">
        <ele>366.5</ele>
        <time>2021-09-28T13:18:49Z</time>
      </trkpt>
      <trkpt lat="43.45655" lon="5.44017">
        <ele>386</ele>
        <time>2021-09-28T13:19:00Z</time>
      </trkpt>
      <trkpt lat="43.45654" lon="5.4401">
        <ele>370.6</ele>
        <time>2021-09-28T13:19:10Z</time>
      </trkpt>
      <trkpt lat="43.45651" lon="5.44003">
        <ele>373.9</ele>
        <time>2021-09-28T13:19:20Z</time>
      </trkpt>
      <trkpt lat="43.45648" lon="5.43992">
        <ele>371.1</ele>
        <time>2021-09-28T13:19:31Z</time>
      </trkpt>
      <trkpt lat="43.45642" lon="5.43982">
        <ele>357.1</ele>
        <time>2021-09-28T13:19:41Z</time>
      </trkpt>
      <trkpt lat="43.45636" lon="5.43972">
        <ele>361.2</ele>
        <time>2021-09-28T13:19:51Z</time>
      </trkpt>
      <trkpt lat="43.45629" lon="5.43961">
        <ele>356.5</ele>
        <time>2021-09-28T13:20:02Z</time>
      </trkpt>
      <trkpt lat="43.45622" lon="5.43953">
        <ele>369.4</ele>
        <time>2021-09-28T13:20:13Z</time>
      </trkpt>
      <trkpt lat="43.45615" lon="5.43946">
        <ele>367.2</ele>
        <time>2021-09-28T13:20:23Z</time>
      </trkpt>
      <trkpt lat="43.45607" lon="5.4394">
        <ele>367.2</ele>
        <time>2021-09-28T13:20:34Z</time>
      </trkpt>
      <trkpt lat="43.456" lon="5.43934">
        <ele>368.8</ele>
        <time>2021-09-28T13:20:45Z</time>
      </trkpt>
      <trkpt lat="43.45595" lon="5.43926">
        <ele>359.2</ele>
        <time>2021-09-28T13:20:56Z</time>
      </trkpt>
      <trkpt lat="43.45587" lon="5.43917">
        <ele>361.7</ele>
        <time>2021-09-28T13:21:06Z</time>
      </trkpt>
      <trkpt lat="43.4558" lon="5.43908">
        <ele>355.8</ele>
        <time>2021-09-28T13:21:17Z</time>
      </trkpt>
      <trkpt lat="43.45574" lon="5.43898">
        <ele>380.7</ele>
        <time>2021-09-28T13:21:28Z</time>
      </trkpt>
      <trkpt lat="43.45568" lon="5.43892">
        <ele>367.6</ele>
        <time>2021-09-28T13:21:38Z</time>
      </trkpt>
      <trkpt lat="43.45559" lon="5.43882">
        <ele>358.3</ele>
        <time>2021-09-28T13:21:49Z</time>
      </trkpt>
      <trkpt lat="43.45554" lon="5.43874">
        <ele>352.2</ele>
        <time>2021-09-28T13:21:59Z</time>
      </trkpt>
      <trkpt lat="43.45547" lon="5.43863">
        <ele>361</ele>
        <time>2021-09-28T13:22:09Z</time>
      </trkpt>
      <trkpt lat="43.45539" lon="5.43855">
        <ele>371.4</ele>
        <time>2021-09-28T13:22:20Z</time>
      </trkpt>
      <trkpt lat="43.45532" lon="5.43843">
        <ele>363.5</ele>
        <time>2021-09-28T13:22:31Z</time>
      </trkpt>
      <trkpt lat="43.45526" lon="5.43832">
        <ele>356.1</ele>
        <time>2021-09-28T13:22:41Z</time>
      </trkpt>
      <trkpt lat="43.45515" lon="5.43823">
        <ele>361.9</ele>
        <time>2021-09-28T13:22:52Z</time>
      </trkpt>
      <trkpt lat="43.45502" lon="5.43814">
        <ele>356</ele>
        <time>2021-09-28T13:23:03Z</time>
      </trkpt>
      <trkpt lat="43.45493" lon="5.43805">
        <ele>372.2</ele>
        <time>2021-09-28T13:23:13Z</time>
      </trkpt>
      <trkpt lat="43.45486" lon="5.43799">
        <ele>354.8</ele>
        <time>2021-09-28T13:23:24Z</time>
      </trkpt>
      <trkpt lat="43.45478" lon="5.43788">
        <ele>333.7</ele>
        <time>2021-09-28T13:23:35Z</time>
      </trkpt>
      <trkpt lat="43.45472" lon="5.43778">
        <ele>339</ele>
        <time>2021-09-28T13:23:46Z</time>
      </trkpt>
      <trkpt lat="43.45465" lon="5.43766">
        <ele>352.6</ele>
        <time>2021-09-28T13:23:57Z</time>
      </trkpt>
      <trkpt lat="43.45457" lon="5.43755">
        <ele>346.7</ele>
        <time>2021-09-28T13:24:08Z</time>
      </trkpt>
      <trkpt lat="43.45449" lon="5.43743">
        <ele>356.9</ele>
        <time>2021-09-28T13:24:19Z</time>
      </trkpt>
      <trkpt lat="43.45442" lon="5.43734">
        <ele>345.2</ele>
        <time>2021-09-28T13:24:30Z</time>
      </trkpt>
      <trkpt lat="43.45435" lon="5.43723">
        <ele>342.9</ele>
        <time>2021-09-28T13:24:41Z</time>
      </trkpt>
      <trkpt lat="43.45433" lon="5.43714">
        <ele>357.6</ele>
        <time>2021-09-28T13:24:51Z</time>
      </trkpt>
      <trkpt lat="43.45427" lon="5.43703">
        <ele>336.3</ele>
        <time>2021-09-28T13:25:01Z</time>
      </trkpt>
      <trkpt lat="43.4542" lon="5.43692">
        <ele>353.1</ele>
        <time>2021-09-28T13:25:12Z</time>
      </trkpt>
      <trkpt lat="43.45414" lon="5.4368">
        <ele>360.2</ele>
        <time>2021-09-28T13:25:23Z</time>
      </trkpt>
      <trkpt lat="43.4541" lon="5.43669">
        <ele>368.5</ele>
        <time>2021-09-28T13:25:33Z</time>
      </trkpt>
      <trkpt lat="43.45401" lon="5.43658">
        <ele>363.1</ele>
        <time>2021-09-28T13:25:44Z</time>
      </trkpt>
      <trkpt lat="43.45394" lon="5.4365">
        <ele>355.7</ele>
        <time>2021-09-28T13:25:55Z</time>
      </trkpt>
      <trkpt lat="43.45387" lon="5.43641">
        <ele>340.2</ele>
        <time>2021-09-28T13:26:05Z</time>
      </trkpt>
      <trkpt lat="43.45382" lon="5.43632">
        <ele>348</ele>
        <time>2021-09-28T13:26:16Z</time>
      </trkpt>
      <trkpt lat="43.45378" lon="5.43625">
        <ele>342.4</ele>
        <time>2021-09-28T13:26:26Z</time>
      </trkpt>
      <trkpt lat="43.45371" lon="5.43617">
        <ele>343.6</ele>
        <time>2021-09-28T13:26:36Z</time>
      </trkpt>
      <trkpt lat="43.45363" lon="5.43611">
        <ele>352.8</ele>
        <time>2021-09-28T13:26:46Z</time>
      </trkpt>
      <trkpt lat="43.45356" lon="5.436">
        <ele>351.9</ele>
        <time>2021-09-28T13:26:57Z</time>
      </trkpt>
      <trkpt lat="43.45351" lon="5.4359">
        <ele>340.8</ele>
        <time>2021-09-28T13:27:07Z</time>
      </trkpt>
      <trkpt lat="43.45348" lon="5.43581">
        <ele>343.7</ele>
        <time>2021-09-28T13:27:17Z</time>
      </trkpt>
      <trkpt lat="43.45346" lon="5.43567">
        <ele>337.4</ele>
        <time>2021-09-28T13:27:28Z</time>
      </trkpt>
      <trkpt lat="43.45343" lon="5.43554">
        <ele>328.8</ele>
        <time>2021-09-28T13:27:39Z</time>
      </trkpt>
      <trkpt lat="43.45338" lon="5.4354">
        <ele>361.7</ele>
        <time>2021-09-28T13:27:50Z</time>
      </trkpt>
      <trkpt lat="43.45334" lon="5.43528">
        <ele>353.9</ele>
        <time>2021-09-28T13:28:00Z</time>
      </trkpt>
      <trkpt lat="43.4533" lon="5.43518">
        <ele>339.9</ele>
        <time>2021-09-28T13:28:10Z</time>
      </trkpt>
      <trkpt lat="43.45329" lon="5.43508">
        <ele>352.5</ele>
        <time>2021-09-28T13:28:20Z</time>
      </trkpt>
      <trkpt lat="43.45328" lon="5.43505">
        <ele>325</ele>
        <time>2021-09-28T13:28:30Z</time>
      </trkpt>
      <trkpt lat="43.45324" lon="5.43495">
        <ele>323.1</ele>
        <time>2021-09-28T13:28:41Z</time>
      </trkpt>
      <trkpt lat="43.45323" lon="5.43493">
        <ele>332.7</ele>
        <time>2021-09-28T13:28:51Z</time>
      </trkpt>
      <trkpt lat="43.4532" lon="5.43488">
        <ele>356.3</ele>
        <time>2021-09-28T13:29:01Z</time>
      </trkpt>
      <trkpt lat="43.45319" lon="5.43476">
        <ele>358.9</ele>
        <time>2021-09-28T13:29:11Z</time>
      </trkpt>
      <trkpt lat="43.45321" lon="5.43464">
        <ele>333.4</ele>
        <time>2021-09-28T13:29:22Z</time>
      </trkpt>
      <trkpt lat="43.45322" lon="5.43454">
        <ele>331.8</ele>
        <time>2021-09-28T13:29:32Z</time>
      </trkpt>
      <trkpt lat="43.45325" lon="5.43442">
        <ele>327.6</ele>
        <time>2021-09-28T13:29:43Z</time>
      </trkpt>
      <trkpt lat="43.45327" lon="5.43433">
        <ele>339.2</ele>
        <time>2021-09-28T13:29:53Z</time>
      </trkpt>
      <trkpt lat="43.45331" lon="5.43423">
        <ele>352.7</ele>
        <time>2021-09-28T13:30:04Z</time>
      </trkpt>
      <trkpt lat="43.45333" lon="5.43414">
        <ele>339.3</ele>
        <time>2021-09-28T13:30:15Z</time>
      </trkpt>
      <trkpt lat="43.45332" lon="5.434">
        <ele>330.3</ele>
        <time>2021-09-28T13:30:26Z</time>
      </trkpt>
      <trkpt lat="43.45337" lon="5.43389">
        <ele>325.1</ele>
        <time>2021-09-28T13:30:37Z</time>
      </trkpt>
      <trkpt lat="43.45342" lon="5.43377">
        <ele>326</ele>
        <time>2021-09-28T13:30:48Z</time>
      </trkpt>
      <trkpt lat="43.45343" lon="5.43368">
        <ele>337.4</ele>
        <time>2021-09-28T13:30:58Z</time>
      </trkpt>
      <trkpt lat="43.45346" lon="5.43355">
        <ele>348.6</ele>
        <time>2021-09-28T13:31:09Z</time>
      </trkpt>
      <trkpt lat="43.45348" lon="5.43343">
        <ele>338.5</ele>
        <time>2021-09-28T13:31:19Z</time>
      </trkpt>
      <trkpt lat="43.45352" lon="5.43332">
        <ele>335.5</ele>
        <time>2021-09-28T13:31:29Z</time>
      </trkpt>
      <trkpt lat="43.45356" lon="5.43322">
        <ele>342.7</ele>
        <time>2021-09-28T13:31:39Z</time>
      </trkpt>
      <trkpt lat="43.45358" lon="5.43305">
        <ele>336.1</ele>
        <time>2021-09-28T13:31:50Z</time>
      </trkpt>
      <trkpt lat="43.45359" lon="5.4329">
        <ele>338.2</ele>
        <time>2021-09-28T13:32:01Z</time>
      </trkpt>
      <trkpt lat="43.45356" lon="5.4328">
        <ele>350.4</ele>
        <time>2021-09-28T13:32:12Z</time>
      </trkpt>
      <trkpt lat="43.45357" lon="5.43265">
        <ele>333</ele>
        <time>2021-09-28T13:32:23Z</time>
      </trkpt>
      <trkpt lat="43.45356" lon="5.43252">
        <ele>343.5</ele>
        <time>2021-09-28T13:32:34Z</time>
      </trkpt>
      <trkpt lat="43.45356" lon="5.43238">
        <ele>347.7</ele>
        <time>2021-09-28T13:32:44Z</time>
      </trkpt>
      <trkpt lat="43.45356" lon="5.43225">
        <ele>339.9</ele>
        <time>2021-09-28T13:32:54Z</time>
      </trkpt>
      <trkpt lat="43.45352" lon="5.43213">
        <ele>354.8</ele>
        <time>2021-09-28T13:33:05Z</time>
      </trkpt>
      <trkpt lat="43.45348" lon="5.43201">
        <ele>328.6</ele>
        <time>2021-09-28T13:33:15Z</time>
      </trkpt>
      <trkpt lat="43.45346" lon="5.43189">
        <ele>340.9</ele>
        <time>2021-09-28T13:33:25Z</time>
      </trkpt>
      <trkpt lat="43.45341" lon="5.43174">
        <ele>333.4</ele>
        <time>2021-09-28T13:33:36Z</time>
      </trkpt>
      <trkpt lat="43.45338" lon="5.43163">
        <ele>353.8</ele>
        <time>2021-09-28T13:33:46Z</time>
      </trkpt>
      <trkpt lat="43.45336" lon="5.4315">
        <ele>341.6</ele>
        <time>2021-09-28T13:33:56Z</time>
      </trkpt>
      <trkpt lat="43.45334" lon="5.43137">
        <ele>332.5</ele>
        <time>2021-09-28T13:34:07Z</time>
      </trkpt>
      <trkpt lat="43.45334" lon="5.43121">
        <ele>339.3</ele>
        <time>2021-09-28T13:34:17Z</time>
      </trkpt>
      <trkpt lat="43.45331" lon="5.43109">
        <ele>336</ele>
        <time>2021-09-28T13:34:27Z</time>
      </trkpt>
      <trkpt lat="43.45331" lon="5.43093">
        <ele>336.2</ele>
        <time>2021-09-28T13:34:38Z</time>
      </trkpt>
      <trkpt lat="43.4533" lon="5.43082">
        <ele>328.8</ele>
        <time>2021-09-28T13:34:49Z</time>
      </trkpt>
      <trkpt lat="43.45334" lon="5.43073">
        <ele>336.3</ele>
        <time>2021-09-28T13:34:59Z</time>
      </trkpt>
      <trkpt lat="43.45335" lon="5.43059">
        <ele>331.4</ele>
        <time>2021-09-28T13:35:10Z</time>
      </trkpt>
      <trkpt lat="43.45336" lon="5.43046">
        <ele>338.7</ele>
        <time>2021-09-28T13:35:21Z</time>
      </trkpt>
      <trkpt lat="43.4534" lon="5.43035">
        <ele>337</ele>
        <time>2021-09-28T13:35:31Z</time>
      </trkpt>
      <trkpt lat="43.45345" lon="5.43022">
        <ele>311.1</ele>
        <time>2021-09-28T13:35:42Z</time>
      </trkpt>
      <trkpt lat="43.45349" lon="5.43005">
        <ele>340.1</ele>
        <time>2021-09-28T13:35:53Z</time>
      </trkpt>
      <trkpt lat="43.45353" lon="5.42991">
        <ele>310</ele>
        <time>2021-09-28T13:36:04Z</time>
      </trkpt>
      <trkpt lat="43.45359" lon="5.42982">
        <ele>324.9</ele>
        <time>2021-09-28T13:36:14Z</time>
      </trkpt>
      <trkpt lat="43.45364" lon="5.42968">
        <ele>334.7</ele>
        <time>2021-09-28T13:36:25Z</time>
      </trkpt>
      <trkpt lat="43.45365" lon="5.42959">
        <ele>336.9</ele>
        <time>2021-09-28T13:36:36Z</time>
      </trkpt>
      <trkpt lat="43.45362" lon="5.42947">
        <ele>345.7</ele>
        <time>2021-09-28T13:36:46Z</time>
      </trkpt>
      <trkpt lat="43.45362" lon="5.42933">
        <ele>360.1</ele>
        <time>2021-09-28T13:36:57Z</time>
      </trkpt>
      <trkpt lat="43.45363" lon="5.4292">
        <ele>363.3</ele>
        <time>2021-09-28T13:37:07Z</time>
      </trkpt>
      <trkpt lat="43.45362" lon="5.42904">
        <ele>338.1</ele>
        <time>2021-09-28T13:37:17Z</time>
      </trkpt>
      <trkpt lat="43.45362" lon="5.4289">
        <ele>324.6</ele>
        <time>2021-09-28T13:37:28Z</time>
      </trkpt>
      <trkpt lat="43.45363" lon="5.42878">
        <ele>336.4</ele>
        <time>2021-09-28T13:37:39Z</time>
      </trkpt>
      <trkpt lat="43.45361" lon="5.42867">
        <ele>333</ele>
        <time>2021-09-28T13:37:49Z</time>
      </trkpt>
      <trkpt lat="43.45358" lon="5.42855">
        <ele>335.4</ele>
        <time>2021-09-28T13:37:59Z</time>
      </trkpt>
      <trkpt lat="43.45357" lon="5.42842">
        <ele>333.3</ele>
        <time>2021-09-28T13:38:10Z</time>
      </trkpt>
      <trkpt lat="43.45353" lon="5.42833">
        <ele>325.7</ele>
        <time>2021-09-28T13:38:20Z</time>
      </trkpt>
      <trkpt lat="43.45348" lon="5.42828">
        <ele>325.5</ele>
        <time>2021-09-28T13:38:30Z</time>
      </trkpt>
      <trkpt lat="43.45348" lon="5.42828">
        <ele>308.2</ele>
        <time>2021-09-28T13:38:41Z</time>
      </trkpt>
      <trkpt lat="43.45348" lon="5.42828">
        <ele>302.8</ele>
        <time>2021-09-28T13:38:51Z</time>
      </trkpt>
      <trkpt lat="43.45346" lon="5.42827">
        <ele>340.7</ele>
        <time>2021-09-28T13:39:01Z</time>
      </trkpt>
      <trkpt lat="43.45346" lon="5.42827">
        <ele>323.4</ele>
        <time>2021-09-28T13:39:12Z</time>
      </trkpt>
      <trkpt lat="43.45346" lon="5.42827">
        <ele>328.7</ele>
        <time>2021-09-28T13:39:23Z</time>
      </trkpt>
      <trkpt lat="43.45346" lon="5.42827">
        <ele>341.2</ele>
        <time>2021-09-28T13:39:34Z</time>
      </trkpt>
      <trkpt lat="43.45346" lon="5.42827">
        <ele>339.8</ele>
        <time>2021-09-28T13:39:44Z</time>
      </trkpt>
      <trkpt lat="43.45346" lon="5.42827">
        <ele>325.2</ele>
        <time>2021-09-28T13:39:55Z</time>
      </trkpt>
      <trkpt lat="43.45348" lon="5.4282">
        <ele>339.7</ele>
        <time>2021-09-28T13:40:06Z</time>
      </trkpt>
      <trkpt lat="43.45348" lon="5.42809">
        <ele>354.8</ele>
        <time>2021-09-28T13:40:16Z</time>
      </trkpt>
      <trkpt lat="43.45347" lon="5.42798">
        <ele>335.3</ele>
        <time>2021-09-28T13:40:27Z</time>
      </trkpt>
      <trkpt lat="43.45345" lon="5.42787">
        <ele>343</ele>
        <time>2021-09-28T13:40:38Z</time>
      </trkpt>
      <trkpt lat="43.45345" lon="5.42773">
        <ele>347.6</ele>
        <time>2021-09-28T13:40:48Z</time>
      </trkpt>
      <trkpt lat="43.45343" lon="5.42756">
        <ele>326.7</ele>
        <time>2021-09-28T13:40:59Z</time>
      </trkpt>
      <trkpt lat="43.4534" lon="5.42744">
        <ele>334.4</ele>
        <time>2021-09-28T13:41:09Z</time>
      </trkpt>
      <trkpt lat="43.45341" lon="5.42728">
        <ele>320.2</ele>
        <time>2021-09-28T13:41:20Z</time>
      </trkpt>
      <trkpt lat="43.45339" lon="5.42717">
        <ele>314.3</ele>
        <time>2021-09-28T13:41:30Z</time>
      </trkpt>
      <trkpt lat="43.45338" lon="5.42707">
        <ele>332.3</ele>
        <time>2021-09-28T13:41:41Z</time>
      </trkpt>
      <trkpt lat="43.45337" lon="5.42692">
        <ele>340.4</ele>
        <time>2021-09-28T13:41:51Z</time>
      </trkpt>
      <trkpt lat="43.45334" lon="5.42681">
        <ele>349.8</ele>
        <time>2021-09-28T13:42:02Z</time>
      </trkpt>
      <trkpt lat="43.45333" lon="5.42669">
        <ele>323.9</ele>
        <time>2021-09-28T13:42:12Z</time>
      </trkpt>
      <trkpt lat="43.45334" lon="5.42657">
        <ele>337.7</ele>
        <time>2021-09-28T13:42:22Z</time>
      </trkpt>
      <trkpt lat="43.45336" lon="5.4264">
        <ele>347.5</ele>
        <time>2021-09-28T13:42:32Z</time>
      </trkpt>
      <trkpt lat="43.45335" lon="5.42627">
        <ele>354.5</ele>
        <time>2021-09-28T13:42:43Z</time>
      </trkpt>
      <trkpt lat="43.45333" lon="5.42614">
        <ele>334</ele>
        <time>2021-09-28T13:42:53Z</time>
      </trkpt>
      <trkpt lat="43.45331" lon="5.42599">
        <ele>323.6</ele>
        <time>2021-09-28T13:43:04Z</time>
      </trkpt>
      <trkpt lat="43.45328" lon="5.42584">
        <ele>351.1</ele>
        <time>2021-09-28T13:43:14Z</time>
      </trkpt>
      <trkpt lat="43.45327" lon="5.42571">
        <ele>338.5</ele>
        <time>2021-09-28T13:43:25Z</time>
      </trkpt>
      <trkpt lat="43.45327" lon="5.42557">
        <ele>314.5</ele>
        <time>2021-09-28T13:43:36Z</time>
      </trkpt>
      <trkpt lat="43.45328" lon="5.42544">
        <ele>320.9</ele>
        <time>2021-09-28T13:43:46Z</time>
      </trkpt>
      <trkpt lat="43.4533" lon="5.42531">
        <ele>333</ele>
        <time>2021-09-28T13:43:56Z</time>
      </trkpt>
      <trkpt lat="43.45336" lon="5.4252">
        <ele>317.6</ele>
        <time>2021-09-28T13:44:07Z</time>
      </trkpt>
      <trkpt lat="43.45342" lon="5.4251">
        <ele>325</ele>
        <time>2021-09-28T13:44:17Z</time>
      </trkpt>
      <trkpt lat="43.45348" lon="5.42503">
        <ele>328.9</ele>
        <time>2021-09-28T13:44:27Z</time>
      </trkpt>
      <trkpt lat="43.45353" lon="5.42489">
        <ele>331.8</ele>
        <time>2021-09-28T13:44:38Z</time>
      </trkpt>
      <trkpt lat="43.45356" lon="5.42477">
        <ele>336</ele>
        <time>2021-09-28T13:44:48Z</time>
      </trkpt>
      <trkpt lat="43.45358" lon="5.42465">
        <ele>341.2</ele>
        <time>2021-09-28T13:44:58Z</time>
      </trkpt>
      <trkpt lat="43.45358" lon="5.42453">
        <ele>335.2</ele>
        <time>2021-09-28T13:45:09Z</time>
      </trkpt>
      <trkpt lat="43.45355" lon="5.42441">
        <ele>348.2</ele>
        <time>2021-09-28T13:45:19Z</time>
      </trkpt>
      <trkpt lat="43.45353" lon="5.42436">
        <ele>364.6</ele>
        <time>2021-09-28T13:45:29Z</time>
      </trkpt>
      <trkpt lat="43.45353" lon="5.42436">
        <ele>342.3</ele>
        <time>2021-09-28T13:45:40Z</time>
      </trkpt>
      <trkpt lat="43.45353" lon="5.42436">
        <ele>335.3</ele>
        <time>2021-09-28T13:45:51Z</time>
      </trkpt>
      <trkpt lat="43.45352" lon="5.42435">
        <ele>338.4</ele>
        <time>2021-09-28T13:46:01Z</time>
      </trkpt>
      <trkpt lat="43.45352" lon="5.42432">
        <ele>339.6</ele>
        <time>2021-09-28T13:46:12Z</time>
      </trkpt>
      <trkpt lat="43.45353" lon="5.42422">
        <ele>360.5</ele>
        <time>2021-09-28T13:46:23Z</time>
      </trkpt>
      <trkpt lat="43.45352" lon="5.42409">
        <ele>353.2</ele>
        <time>2021-09-28T13:46:34Z</time>
      </trkpt>
      <trkpt lat="43.45347" lon="5.42398">
        <ele>334.8</ele>
        <time>2021-09-28T13:46:44Z</time>
      </trkpt>
      <trkpt lat="43.45342" lon="5.42384">
        <ele>341.6</ele>
        <time>2021-09-28T13:46:54Z</time>
      </trkpt>
      <trkpt lat="43.45337" lon="5.42371">
        <ele>340.5</ele>
        <time>2021-09-28T13:47:05Z</time>
      </trkpt>
      <trkpt lat="43.45335" lon="5.42365">
        <ele>334.3</ele>
        <time>2021-09-28T13:47:15Z</time>
      </trkpt>
      <trkpt lat="43.45331" lon="5.42351">
        <ele>331.2</ele>
        <time>2021-09-28T13:47:25Z</time>
      </trkpt>
      <trkpt lat="43.45326" lon="5.42338">
        <ele>345.3</ele>
        <time>2021-09-28T13:47:36Z</time>
      </trkpt>
      <trkpt lat="43.45321" lon="5.42328">
        <ele>345.2</ele>
        <time>2021-09-28T13:47:46Z</time>
      </trkpt>
      <trkpt lat="43.45318" lon="5.42318">
        <ele>330.3</ele>
        <time>2021-09-28T13:47:56Z</time>
      </trkpt>
      <trkpt lat="43.45315" lon="5.42307">
        <ele>339.7</ele>
        <time>2021-09-28T13:48:07Z</time>
      </trkpt>
      <trkpt lat="43.45312" lon="5.42294">
        <ele>327.3</ele>
        <time>2021-09-28T13:48:18Z</time>
      </trkpt>
      <trkpt lat="43.45309" lon="5.42281">
        <ele>328.8</ele>
        <time>2021-09-28T13:48:28Z</time>
      </trkpt>
      <trkpt lat="43.45303" lon="5.42263">
        <ele>352.4</ele>
        <time>2021-09-28T13:48:39Z</time>
      </trkpt>
      <trkpt lat="43.45299" lon="5.42248">
        <ele>349</ele>
        <time>2021-09-28T13:48:49Z</time>
      </trkpt>
      <trkpt lat="43.45294" lon="5.42241">
        <ele>337.3</ele>
        <time>2021-09-28T13:48:59Z</time>
      </trkpt>
      <trkpt lat="43.45292" lon="5.42231">
        <ele>349.2</ele>
        <time>2021-09-28T13:49:09Z</time>
      </trkpt>
      <trkpt lat="43.45286" lon="5.42216">
        <ele>335.5</ele>
        <time>2021-09-28T13:49:20Z</time>
      </trkpt>
      <trkpt lat="43.45281" lon="5.42201">
        <ele>335.5</ele>
        <time>2021-09-28T13:49:31Z</time>
      </trkpt>
      <trkpt lat="43.45278" lon="5.42188">
        <ele>330.5</ele>
        <time>2021-09-28T13:49:41Z</time>
      </trkpt>
      <trkpt lat="43.45273" lon="5.42173">
        <ele>329</ele>
        <time>2021-09-28T13:49:52Z</time>
      </trkpt>
      <trkpt lat="43.45272" lon="5.4216">
        <ele>327.1</ele>
        <time>2021-09-28T13:50:02Z</time>
      </trkpt>
      <trkpt lat="43.4527" lon="5.42144">
        <ele>328.2</ele>
        <time>2021-09-28T13:50:13Z</time>
      </trkpt>
      <trkpt lat="43.45268" lon="5.42136">
        <ele>324.9</ele>
        <time>2021-09-28T13:50:23Z</time>
      </trkpt>
      <trkpt lat="43.45266" lon="5.42124">
        <ele>322.5</ele>
        <time>2021-09-28T13:50:34Z</time>
      </trkpt>
      <trkpt lat="43.45262" lon="5.42111">
        <ele>330.6</ele>
        <time>2021-09-28T13:50:44Z</time>
      </trkpt>
      <trkpt lat="43.45258" lon="5.42101">
        <ele>312</ele>
        <time>2021-09-28T13:50:54Z</time>
      </trkpt>
      <trkpt lat="43.45254" lon="5.42091">
        <ele>327.2</ele>
        <time>2021-09-28T13:51:04Z</time>
      </trkpt>
      <trkpt lat="43.45253" lon="5.42078">
        <ele>306.9</ele>
        <time>2021-09-28T13:51:15Z</time>
      </trkpt>
      <trkpt lat="43.45249" lon="5.42071">
        <ele>329.4</ele>
        <time>2021-09-28T13:51:26Z</time>
      </trkpt>
      <trkpt lat="43.45246" lon="5.42059">
        <ele>338.9</ele>
        <time>2021-09-28T13:51:36Z</time>
      </trkpt>
      <trkpt lat="43.45243" lon="5.42048">
        <ele>317.1</ele>
        <time>2021-09-28T13:51:47Z</time>
      </trkpt>
      <trkpt lat="43.45237" lon="5.42038">
        <ele>323.1</ele>
        <time>2021-09-28T13:51:58Z</time>
      </trkpt>
      <trkpt lat="43.45233" lon="5.42028">
        <ele>304.3</ele>
        <time>2021-09-28T13:52:08Z</time>
      </trkpt>
      <trkpt lat="43.4523" lon="5.42019">
        <ele>319.2</ele>
        <time>2021-09-28T13:52:18Z</time>
      </trkpt>
      <trkpt lat="43.45227" lon="5.42008">
        <ele>320.2</ele>
        <time>2021-09-28T13:52:29Z</time>
      </trkpt>
      <trkpt lat="43.45223" lon="5.41992">
        <ele>325.5</ele>
        <time>2021-09-28T13:52:40Z</time>
      </trkpt>
      <trkpt lat="43.45217" lon="5.4198">
        <ele>321</ele>
        <time>2021-09-28T13:52:50Z</time>
      </trkpt>
      <trkpt lat="43.45213" lon="5.41971">
        <ele>304.7</ele>
        <time>2021-09-28T13:53:00Z</time>
      </trkpt>
      <trkpt lat="43.45214" lon="5.41962">
        <ele>308.2</ele>
        <time>2021-09-28T13:53:11Z</time>
      </trkpt>
      <trkpt lat="43.45215" lon="5.41951">
        <ele>323.1</ele>
        <time>2021-09-28T13:53:22Z</time>
      </trkpt>
      <trkpt lat="43.45213" lon="5.41949">
        <ele>319.3</ele>
        <time>2021-09-28T13:53:32Z</time>
      </trkpt>
      <trkpt lat="43.45213" lon="5.41947">
        <ele>305.8</ele>
        <time>2021-09-28T13:53:42Z</time>
      </trkpt>
      <trkpt lat="43.45213" lon="5.41947">
        <ele>303.2</ele>
        <time>2021-09-28T13:53:53Z</time>
      </trkpt>
      <trkpt lat="43.45211" lon="5.4194">
        <ele>296.2</ele>
        <time>2021-09-28T13:54:03Z</time>
      </trkpt>
      <trkpt lat="43.45211" lon="5.4194">
        <ele>313.6</ele>
        <time>2021-09-28T13:54:14Z</time>
      </trkpt>
      <trkpt lat="43.45211" lon="5.4194">
        <ele>319.6</ele>
        <time>2021-09-28T13:54:24Z</time>
      </trkpt>
      <trkpt lat="43.45211" lon="5.4194">
        <ele>328.9</ele>
        <time>2021-09-28T13:54:35Z</time>
      </trkpt>
      <trkpt lat="43.45211" lon="5.4194">
        <ele>323.2</ele>
        <time>2021-09-28T13:54:46Z</time>
      </trkpt>
      <trkpt lat="43.45211" lon="5.4194">
        <ele>307.6</ele>
        <time>2021-09-28T13:54:57Z</time>
      </trkpt>
      <trkpt lat="43.45211" lon="5.4194">
        <ele>307.8</ele>
        <time>2021-09-28T13:55:08Z</time>
      </trkpt>
      <trkpt lat="43.45211" lon="5.4194">
        <ele>318</ele>
        <time>2021-09-28T13:55:18Z</time>
      </trkpt>
      <trkpt lat="43.45211" lon="5.41938">
        <ele>299.9</ele>
        <time>2021-09-28T13:55:29Z</time>
      </trkpt>
      <trkpt lat="43.45217" lon="5.41947">
        <ele>315.1</ele>
        <time>2021-09-28T13:55:40Z</time>
      </trkpt>
      <trkpt lat="43.45225" lon="5.41956">
        <ele>306.1</ele>
        <time>2021-09-28T13:55:50Z</time>
      </trkpt>
      <trkpt lat="43.45233" lon="5.41964">
        <ele>302.4</ele>
        <time>2021-09-28T13:56:00Z</time>
      </trkpt>
      <trkpt lat="43.4524" lon="5.41972">
        <ele>318.5</ele>
        <time>2021-09-28T13:56:11Z</time>
      </trkpt>
      <trkpt lat="43.45248" lon="5.4198">
        <ele>314</ele>
        <time>2021-09-28T13:56:22Z</time>
      </trkpt>
      <trkpt lat="43.45252" lon="5.4198">
        <ele>314.1</ele>
        <time>2021-09-28T13:56:32Z</time>
      </trkpt>
      <trkpt lat="43.45252" lon="5.4197">
        <ele>296.5</ele>
        <time>2021-09-28T13:56:43Z</time>
      </trkpt>
      <trkpt lat="43.4525" lon="5.41963">
        <ele>322.8</ele>
        <time>2021-09-28T13:56:53Z</time>
      </trkpt>
      <trkpt lat="43.4525" lon="5.41955">
        <ele>307.8</ele>
        <time>2021-09-28T13:57:03Z</time>
      </trkpt>
      <trkpt lat="43.45255" lon="5.41952">
        <ele>295.5</ele>
        <time>2021-09-28T13:57:13Z</time>
      </trkpt>
      <trkpt lat="43.45262" lon="5.41954">
        <ele>311.9</ele>
        <time>2021-09-28T13:57:24Z</time>
      </trkpt>
      <trkpt lat="43.4527" lon="5.41961">
        <ele>294.8</ele>
        <time>2021-09-28T13:57:34Z</time>
      </trkpt>
      <trkpt lat="43.45278" lon="5.41966">
        <ele>298.8</ele>
        <time>2021-09-28T13:57:44Z</time>
      </trkpt>
      <trkpt lat="43.45282" lon="5.41966">
        <ele>310.3</ele>
        <time>2021-09-28T13:57:55Z</time>
      </trkpt>
      <trkpt lat="43.45283" lon="5.41956">
        <ele>299.5</ele>
        <time>2021-09-28T13:58:06Z</time>
      </trkpt>
      <trkpt lat="43.45281" lon="5.41944">
        <ele>292.6</ele>
        <time>2021-09-28T13:58:17Z</time>
      </trkpt>
      <trkpt lat="43.45282" lon="5.41933">
        <ele>290.6</ele>
        <time>2021-09-28T13:58:27Z</time>
      </trkpt>
      <trkpt lat="43.45285" lon="5.41927">
        <ele>293.6</ele>
        <time>2021-09-28T13:58:38Z</time>
      </trkpt>
      <trkpt lat="43.45285" lon="5.41923">
        <ele>297.2</ele>
        <time>2021-09-28T13:58:48Z</time>
      </trkpt>
      <trkpt lat="43.4529" lon="5.41917">
        <ele>303.2</ele>
        <time>2021-09-28T13:58:59Z</time>
      </trkpt>
      <trkpt lat="43.45294" lon="5.4191">
        <ele>280.2</ele>
        <time>2021-09-28T13:59:10Z</time>
      </trkpt>
      <trkpt lat="43.45295" lon="5.41901">
        <ele>307.7</ele>
        <time>2021-09-28T13:59:20Z</time>
      </trkpt>
      <trkpt lat="43.45302" lon="5.419">
        <ele>294</ele>
        <time>2021-09-28T13:59:31Z</time>
      </trkpt>
      <trkpt lat="43.45316" lon="5.41906">
        <ele>281.1</ele>
        <time>2021-09-28T13:59:42Z</time>
      </trkpt>
    </trkseg>
  </trk>
</gpx>